<?xml version="1.0" encoding="UTF-8" standalone="no" ?>
<gpx xmlns="http://www.topografix.com/GPX/1/1" xmlns:xsi="http://www.w3.org/2001/XMLSchema-instance" xsi:schemaLocation="http://www.topografix.com/GPX/1/1 http://www.topografix.com/GPX/1/1/gpx.xsd" version="1.1" creator="VisuGPX - https://www.visugpx.com">
  <metadata>
    <name>Beauvais - Creil</name>
    <desc><![CDATA[Pour aller chercher le train à Creil depuis la cathédrale de Beauvais.]]></desc>
  </metadata>
  <trk>
    <name><![CDATA[Beauvais Creil]]></name>
    <trkseg>
      <trkpt lat="49.43229" lon="2.08068">
        <ele>71.274184583446</ele>
        <time>2018-10-03T14:31:37.958Z</time>
      </trkpt>
      <trkpt lat="49.43239" lon="2.08039">
        <ele>71.274184583446</ele>
        <time>2018-10-03T14:31:52.894Z</time>
      </trkpt>
      <trkpt lat="49.43271" lon="2.08045">
        <ele>71.274184583446</ele>
        <time>2018-10-03T14:32:14.778Z</time>
      </trkpt>
      <trkpt lat="49.43296" lon="2.08058">
        <ele>71.274184583446</ele>
        <time>2018-10-03T14:32:33.509Z</time>
      </trkpt>
      <trkpt lat="49.43317" lon="2.08067">
        <ele>71.217975995158</ele>
        <time>2018-10-03T14:32:37.889Z</time>
      </trkpt>
      <trkpt lat="49.43327" lon="2.08072">
        <ele>71.16893658327</ele>
        <time>2018-10-03T14:32:39.788Z</time>
      </trkpt>
      <trkpt lat="49.43335" lon="2.08044">
        <ele>71.073510426815</ele>
        <time>2018-10-03T14:32:43.641Z</time>
      </trkpt>
      <trkpt lat="49.43363" lon="2.08071">
        <ele>70.915155699657</ele>
        <time>2018-10-03T14:32:49.671Z</time>
      </trkpt>
      <trkpt lat="49.43369" lon="2.08055">
        <ele>70.854799585233</ele>
        <time>2018-10-03T14:32:51.882Z</time>
      </trkpt>
      <trkpt lat="49.43375" lon="2.08038">
        <ele>70.795206793633</ele>
        <time>2018-10-03T14:32:54.038Z</time>
      </trkpt>
      <trkpt lat="49.43393" lon="2.08005">
        <ele>70.658301566086</ele>
        <time>2018-10-03T14:32:59.033Z</time>
      </trkpt>
      <trkpt lat="49.43399" lon="2.07997">
        <ele>70.618298771123</ele>
        <time>2018-10-03T14:33:00.503Z</time>
      </trkpt>
      <trkpt lat="49.43409" lon="2.07983">
        <ele>70.553277205212</ele>
        <time>2018-10-03T14:33:02.910Z</time>
      </trkpt>
      <trkpt lat="49.43419" lon="2.08">
        <ele>70.481841828714</ele>
        <time>2018-10-03T14:33:04.725Z</time>
      </trkpt>
      <trkpt lat="49.43448" lon="2.08046">
        <ele>70.443679064442</ele>
        <time>2018-10-03T14:33:10.136Z</time>
      </trkpt>
      <trkpt lat="49.43467" lon="2.08081">
        <ele>70.502093336318</ele>
        <time>2018-10-03T14:33:14.443Z</time>
      </trkpt>
      <trkpt lat="49.43492" lon="2.08123">
        <ele>70.572372481155</ele>
        <time>2018-10-03T14:33:19.703Z</time>
      </trkpt>
      <trkpt lat="49.43496" lon="2.08136">
        <ele>70.590664974042</ele>
        <time>2018-10-03T14:33:21.586Z</time>
      </trkpt>
      <trkpt lat="49.43499" lon="2.08142">
        <ele>70.600369550614</ele>
        <time>2018-10-03T14:33:22.445Z</time>
      </trkpt>
      <trkpt lat="49.43501" lon="2.08146">
        <ele>70.607008355794</ele>
        <time>2018-10-03T14:33:22.962Z</time>
      </trkpt>
      <trkpt lat="49.43509" lon="2.08162">
        <ele>70.6311854723</ele>
        <time>2018-10-03T14:33:24.642Z</time>
      </trkpt>
      <trkpt lat="49.43517" lon="2.0818">
        <ele>70.659855226761</ele>
        <time>2018-10-03T14:33:27.523Z</time>
      </trkpt>
      <trkpt lat="49.43533" lon="2.08209">
        <ele>70.707357350834</ele>
        <time>2018-10-03T14:33:31.417Z</time>
      </trkpt>
      <trkpt lat="49.43536" lon="2.08213">
        <ele>70.714665676056</ele>
        <time>2018-10-03T14:33:32.159Z</time>
      </trkpt>
      <trkpt lat="49.43538" lon="2.08218">
        <ele>70.722510429743</ele>
        <time>2018-10-03T14:33:33.091Z</time>
      </trkpt>
      <trkpt lat="49.43545" lon="2.08229">
        <ele>70.740856108026</ele>
        <time>2018-10-03T14:33:35.206Z</time>
      </trkpt>
      <trkpt lat="49.43582" lon="2.08293">
        <ele>71.249210791059</ele>
        <time>2018-10-03T14:33:45.680Z</time>
      </trkpt>
      <trkpt lat="49.43586" lon="2.08301">
        <ele>71.309017910032</ele>
        <time>2018-10-03T14:33:47.175Z</time>
      </trkpt>
      <trkpt lat="49.43588" lon="2.08306">
        <ele>71.344162544147</ele>
        <time>2018-10-03T14:33:48.157Z</time>
      </trkpt>
      <trkpt lat="49.43596" lon="2.08339">
        <ele>71.556573859075</ele>
        <time>2018-10-03T14:33:52.068Z</time>
      </trkpt>
      <trkpt lat="49.43597" lon="2.08353">
        <ele>71.640573719534</ele>
        <time>2018-10-03T14:33:54.175Z</time>
      </trkpt>
      <trkpt lat="49.43598" lon="2.08374">
        <ele>71.767130730594</ele>
        <time>2018-10-03T14:33:57.015Z</time>
      </trkpt>
      <trkpt lat="49.43595" lon="2.08408">
        <ele>71.977467530836</ele>
        <time>2018-10-03T14:34:01.392Z</time>
      </trkpt>
      <trkpt lat="49.43575" lon="2.085">
        <ele>72.340759818072</ele>
        <time>2018-10-03T14:34:12.089Z</time>
      </trkpt>
      <trkpt lat="49.43573" lon="2.08506">
        <ele>72.321045575862</ele>
        <time>2018-10-03T14:34:12.914Z</time>
      </trkpt>
      <trkpt lat="49.43566" lon="2.08542">
        <ele>72.199416622664</ele>
        <time>2018-10-03T14:34:16.889Z</time>
      </trkpt>
      <trkpt lat="49.43562" lon="2.08562">
        <ele>72.132789901635</ele>
        <time>2018-10-03T14:34:18.714Z</time>
      </trkpt>
      <trkpt lat="49.43556" lon="2.08588">
        <ele>72.044904778869</ele>
        <time>2018-10-03T14:34:21.213Z</time>
      </trkpt>
      <trkpt lat="49.43546" lon="2.08606">
        <ele>71.967351737217</ele>
        <time>2018-10-03T14:34:23.082Z</time>
      </trkpt>
      <trkpt lat="49.43543" lon="2.08615">
        <ele>71.936871786038</ele>
        <time>2018-10-03T14:34:23.877Z</time>
      </trkpt>
      <trkpt lat="49.43539" lon="2.08632">
        <ele>71.876656049546</ele>
        <time>2018-10-03T14:34:25.461Z</time>
      </trkpt>
      <trkpt lat="49.43525" lon="2.08625">
        <ele>71.804176401266</ele>
        <time>2018-10-03T14:34:27.883Z</time>
      </trkpt>
      <trkpt lat="49.43506" lon="2.08613">
        <ele>71.703216364424</ele>
        <time>2018-10-03T14:34:31.598Z</time>
      </trkpt>
      <trkpt lat="49.435" lon="2.0861">
        <ele>71.673547920834</ele>
        <time>2018-10-03T14:34:32.628Z</time>
      </trkpt>
      <trkpt lat="49.43493" lon="2.08612">
        <ele>71.635876961923</ele>
        <time>2018-10-03T14:34:33.467Z</time>
      </trkpt>
      <trkpt lat="49.43477" lon="2.08629">
        <ele>71.539909933106</ele>
        <time>2018-10-03T14:34:35.959Z</time>
      </trkpt>
      <trkpt lat="49.43473" lon="2.08641">
        <ele>71.440308403455</ele>
        <time>2018-10-03T14:34:37.032Z</time>
      </trkpt>
      <trkpt lat="49.43455" lon="2.0873">
        <ele>70.643088053397</ele>
        <time>2018-10-03T14:34:44.242Z</time>
      </trkpt>
      <trkpt lat="49.43446" lon="2.08769">
        <ele>70.292481604991</ele>
        <time>2018-10-03T14:34:47.244Z</time>
      </trkpt>
      <trkpt lat="49.43418" lon="2.08903">
        <ele>69.120400080018</ele>
        <time>2018-10-03T14:34:57.912Z</time>
      </trkpt>
      <trkpt lat="49.43414" lon="2.08922">
        <ele>69.029739784603</ele>
        <time>2018-10-03T14:34:59.457Z</time>
      </trkpt>
      <trkpt lat="49.43411" lon="2.08932">
        <ele>68.976628411414</ele>
        <time>2018-10-03T14:35:00.364Z</time>
      </trkpt>
      <trkpt lat="49.43408" lon="2.08945">
        <ele>68.915733714745</ele>
        <time>2018-10-03T14:35:01.441Z</time>
      </trkpt>
      <trkpt lat="49.43402" lon="2.08956">
        <ele>68.850947110055</ele>
        <time>2018-10-03T14:35:02.620Z</time>
      </trkpt>
      <trkpt lat="49.43383" lon="2.09044">
        <ele>68.418493710146</ele>
        <time>2018-10-03T14:35:10.363Z</time>
      </trkpt>
      <trkpt lat="49.43374" lon="2.09138">
        <ele>67.982144372859</ele>
        <time>2018-10-03T14:35:18.257Z</time>
      </trkpt>
      <trkpt lat="49.43373" lon="2.09161">
        <ele>67.905226976378</ele>
        <time>2018-10-03T14:35:20.227Z</time>
      </trkpt>
      <trkpt lat="49.43367" lon="2.09233">
        <ele>68.472664216755</ele>
        <time>2018-10-03T14:35:28.049Z</time>
      </trkpt>
      <trkpt lat="49.43365" lon="2.09264">
        <ele>68.711753966466</ele>
        <time>2018-10-03T14:35:31.800Z</time>
      </trkpt>
      <trkpt lat="49.43363" lon="2.093">
        <ele>68.989772883757</ele>
        <time>2018-10-03T14:35:36.152Z</time>
      </trkpt>
      <trkpt lat="49.43363" lon="2.09304">
        <ele>69.024661007133</ele>
        <time>2018-10-03T14:35:36.839Z</time>
      </trkpt>
      <trkpt lat="49.43362" lon="2.09335">
        <ele>69.267900604488</ele>
        <time>2018-10-03T14:35:41.314Z</time>
      </trkpt>
      <trkpt lat="49.43362" lon="2.09343">
        <ele>69.326047493377</ele>
        <time>2018-10-03T14:35:42.353Z</time>
      </trkpt>
      <trkpt lat="49.43362" lon="2.09351">
        <ele>69.386325416756</ele>
        <time>2018-10-03T14:35:43.423Z</time>
      </trkpt>
      <trkpt lat="49.43365" lon="2.09376">
        <ele>69.583207521967</ele>
        <time>2018-10-03T14:35:47.359Z</time>
      </trkpt>
      <trkpt lat="49.43368" lon="2.09402">
        <ele>69.792018342958</ele>
        <time>2018-10-03T14:35:51.221Z</time>
      </trkpt>
      <trkpt lat="49.43368" lon="2.09409">
        <ele>69.841993715498</ele>
        <time>2018-10-03T14:35:52.114Z</time>
      </trkpt>
      <trkpt lat="49.43368" lon="2.09423">
        <ele>69.955986404898</ele>
        <time>2018-10-03T14:35:54.676Z</time>
      </trkpt>
      <trkpt lat="49.43368" lon="2.09467">
        <ele>70.545599811523</ele>
        <time>2018-10-03T14:36:01.148Z</time>
      </trkpt>
      <trkpt lat="49.43356" lon="2.09519">
        <ele>71.401288441673</ele>
        <time>2018-10-03T14:36:10.031Z</time>
      </trkpt>
      <trkpt lat="49.43346" lon="2.09557">
        <ele>72.029665548414</ele>
        <time>2018-10-03T14:36:16.712Z</time>
      </trkpt>
      <trkpt lat="49.43339" lon="2.09576">
        <ele>72.364781370403</ele>
        <time>2018-10-03T14:36:20.645Z</time>
      </trkpt>
      <trkpt lat="49.43319" lon="2.09641">
        <ele>73.468356307684</ele>
        <time>2018-10-03T14:36:32.368Z</time>
      </trkpt>
      <trkpt lat="49.4331" lon="2.09675">
        <ele>74.044965584524</ele>
        <time>2018-10-03T14:36:38.022Z</time>
      </trkpt>
      <trkpt lat="49.4328" lon="2.09796">
        <ele>75.491691611673</ele>
        <time>2018-10-03T14:36:56.695Z</time>
      </trkpt>
      <trkpt lat="49.43247" lon="2.09913">
        <ele>76.841884693705</ele>
        <time>2018-10-03T14:37:14.199Z</time>
      </trkpt>
      <trkpt lat="49.43228" lon="2.10011">
        <ele>77.621063962196</ele>
        <time>2018-10-03T14:37:27.377Z</time>
      </trkpt>
      <trkpt lat="49.43222" lon="2.10045">
        <ele>77.832990966322</ele>
        <time>2018-10-03T14:37:31.688Z</time>
      </trkpt>
      <trkpt lat="49.43216" lon="2.10078">
        <ele>78.038880555521</ele>
        <time>2018-10-03T14:37:36.131Z</time>
      </trkpt>
      <trkpt lat="49.43209" lon="2.10125">
        <ele>78.325272492925</ele>
        <time>2018-10-03T14:37:41.904Z</time>
      </trkpt>
      <trkpt lat="49.4319" lon="2.10246">
        <ele>78.817594775925</ele>
        <time>2018-10-03T14:37:56.023Z</time>
      </trkpt>
      <trkpt lat="49.43193" lon="2.10357">
        <ele>78.595362466426</ele>
        <time>2018-10-03T14:38:06.638Z</time>
      </trkpt>
      <trkpt lat="49.43197" lon="2.1042">
        <ele>78.470431776492</ele>
        <time>2018-10-03T14:38:11.796Z</time>
      </trkpt>
      <trkpt lat="49.43201" lon="2.10494">
        <ele>78.335732615547</ele>
        <time>2018-10-03T14:38:17.646Z</time>
      </trkpt>
      <trkpt lat="49.43204" lon="2.10538">
        <ele>78.388048243752</ele>
        <time>2018-10-03T14:38:21.154Z</time>
      </trkpt>
      <trkpt lat="49.4321" lon="2.10625">
        <ele>78.491324713455</ele>
        <time>2018-10-03T14:38:29.179Z</time>
      </trkpt>
      <trkpt lat="49.43211" lon="2.10636">
        <ele>78.504531906312</ele>
        <time>2018-10-03T14:38:30.164Z</time>
      </trkpt>
      <trkpt lat="49.43212" lon="2.10645">
        <ele>78.515501615737</ele>
        <time>2018-10-03T14:38:30.962Z</time>
      </trkpt>
      <trkpt lat="49.43213" lon="2.10656">
        <ele>78.528355224621</ele>
        <time>2018-10-03T14:38:31.880Z</time>
      </trkpt>
      <trkpt lat="49.43213" lon="2.10668">
        <ele>78.542595745118</ele>
        <time>2018-10-03T14:38:32.902Z</time>
      </trkpt>
      <trkpt lat="49.43214" lon="2.1068">
        <ele>78.557203330047</ele>
        <time>2018-10-03T14:38:34.686Z</time>
      </trkpt>
      <trkpt lat="49.43215" lon="2.10732">
        <ele>78.618636619213</ele>
        <time>2018-10-03T14:38:40.864Z</time>
      </trkpt>
      <trkpt lat="49.43218" lon="2.10778">
        <ele>78.853083143822</ele>
        <time>2018-10-03T14:38:46.632Z</time>
      </trkpt>
      <trkpt lat="49.43218" lon="2.10787">
        <ele>78.979168293499</ele>
        <time>2018-10-03T14:38:48.441Z</time>
      </trkpt>
      <trkpt lat="49.432" lon="2.1091">
        <ele>80.860220460682</ele>
        <time>2018-10-03T14:39:08.348Z</time>
      </trkpt>
      <trkpt lat="49.43187" lon="2.10955">
        <ele>81.588729544378</ele>
        <time>2018-10-03T14:39:17.100Z</time>
      </trkpt>
      <trkpt lat="49.43177" lon="2.10981">
        <ele>82.037149757709</ele>
        <time>2018-10-03T14:39:22.246Z</time>
      </trkpt>
      <trkpt lat="49.43162" lon="2.11028">
        <ele>82.795331065276</ele>
        <time>2018-10-03T14:39:31.605Z</time>
      </trkpt>
      <trkpt lat="49.43046" lon="2.11432">
        <ele>86.309896630459</ele>
        <time>2018-10-03T14:40:29.347Z</time>
      </trkpt>
      <trkpt lat="49.43045" lon="2.11441">
        <ele>86.351275671248</ele>
        <time>2018-10-03T14:40:30.344Z</time>
      </trkpt>
      <trkpt lat="49.43043" lon="2.11453">
        <ele>86.410779387051</ele>
        <time>2018-10-03T14:40:31.509Z</time>
      </trkpt>
      <trkpt lat="49.43041" lon="2.11472">
        <ele>86.495096567068</ele>
        <time>2018-10-03T14:40:33.546Z</time>
      </trkpt>
      <trkpt lat="49.43039" lon="2.11505">
        <ele>86.646456087687</ele>
        <time>2018-10-03T14:40:36.831Z</time>
      </trkpt>
      <trkpt lat="49.43038" lon="2.11526">
        <ele>86.738670433049</ele>
        <time>2018-10-03T14:40:38.537Z</time>
      </trkpt>
      <trkpt lat="49.43034" lon="2.11544">
        <ele>86.775024160293</ele>
        <time>2018-10-03T14:40:40.467Z</time>
      </trkpt>
      <trkpt lat="49.43028" lon="2.11548">
        <ele>86.731049317142</ele>
        <time>2018-10-03T14:40:41.333Z</time>
      </trkpt>
      <trkpt lat="49.4302" lon="2.11554">
        <ele>86.675126248404</ele>
        <time>2018-10-03T14:40:42.359Z</time>
      </trkpt>
      <trkpt lat="49.43018" lon="2.11558">
        <ele>86.648582498149</ele>
        <time>2018-10-03T14:40:42.850Z</time>
      </trkpt>
      <trkpt lat="49.43014" lon="2.11563">
        <ele>86.619073408882</ele>
        <time>2018-10-03T14:40:43.417Z</time>
      </trkpt>
      <trkpt lat="49.43011" lon="2.11575">
        <ele>86.56300476904</ele>
        <time>2018-10-03T14:40:44.595Z</time>
      </trkpt>
      <trkpt lat="49.4301" lon="2.11588">
        <ele>86.506910002858</ele>
        <time>2018-10-03T14:40:45.708Z</time>
      </trkpt>
      <trkpt lat="49.43008" lon="2.11594">
        <ele>86.475364698537</ele>
        <time>2018-10-03T14:40:46.267Z</time>
      </trkpt>
      <trkpt lat="49.4299" lon="2.11631">
        <ele>86.273085691896</ele>
        <time>2018-10-03T14:40:49.942Z</time>
      </trkpt>
      <trkpt lat="49.42976" lon="2.11678">
        <ele>86.047335110439</ele>
        <time>2018-10-03T14:40:53.960Z</time>
      </trkpt>
      <trkpt lat="49.42972" lon="2.1169">
        <ele>85.988033289778</ele>
        <time>2018-10-03T14:40:55.120Z</time>
      </trkpt>
      <trkpt lat="49.42967" lon="2.11707">
        <ele>85.905501138849</ele>
        <time>2018-10-03T14:40:56.568Z</time>
      </trkpt>
      <trkpt lat="49.42951" lon="2.1177">
        <ele>85.612481817162</ele>
        <time>2018-10-03T14:41:02.490Z</time>
      </trkpt>
      <trkpt lat="49.42936" lon="2.11829">
        <ele>85.272479550928</ele>
        <time>2018-10-03T14:41:08.202Z</time>
      </trkpt>
      <trkpt lat="49.42933" lon="2.11844">
        <ele>85.186804159828</ele>
        <time>2018-10-03T14:41:09.844Z</time>
      </trkpt>
      <trkpt lat="49.42926" lon="2.11873">
        <ele>85.017367623288</ele>
        <time>2018-10-03T14:41:13.386Z</time>
      </trkpt>
      <trkpt lat="49.42905" lon="2.11947">
        <ele>84.584445957986</ele>
        <time>2018-10-03T14:41:22.597Z</time>
      </trkpt>
      <trkpt lat="49.42877" lon="2.12054">
        <ele>83.63578612597</ele>
        <time>2018-10-03T14:41:35.620Z</time>
      </trkpt>
      <trkpt lat="49.42827" lon="2.12035">
        <ele>82.181166019729</ele>
        <time>2018-10-03T14:41:44.105Z</time>
      </trkpt>
      <trkpt lat="49.42696" lon="2.11986">
        <ele>78.466854025868</ele>
        <time>2018-10-03T14:42:03.207Z</time>
      </trkpt>
      <trkpt lat="49.42664" lon="2.11975">
        <ele>77.664960896522</ele>
        <time>2018-10-03T14:42:07.913Z</time>
      </trkpt>
      <trkpt lat="49.42607" lon="2.11955">
        <ele>76.229397906441</ele>
        <time>2018-10-03T14:42:16.444Z</time>
      </trkpt>
      <trkpt lat="49.42609" lon="2.11972">
        <ele>75.954361246127</ele>
        <time>2018-10-03T14:42:17.914Z</time>
      </trkpt>
      <trkpt lat="49.426" lon="2.12234">
        <ele>74.095314805743</ele>
        <time>2018-10-03T14:42:39.783Z</time>
      </trkpt>
      <trkpt lat="49.42594" lon="2.12303">
        <ele>73.888378428312</ele>
        <time>2018-10-03T14:42:47.289Z</time>
      </trkpt>
      <trkpt lat="49.42581" lon="2.1249">
        <ele>73.741126235911</ele>
        <time>2018-10-03T14:43:04.615Z</time>
      </trkpt>
      <trkpt lat="49.42573" lon="2.12605">
        <ele>73.693187834698</ele>
        <time>2018-10-03T14:43:15.346Z</time>
      </trkpt>
      <trkpt lat="49.42568" lon="2.12665">
        <ele>73.883921172292</ele>
        <time>2018-10-03T14:43:21.636Z</time>
      </trkpt>
      <trkpt lat="49.42563" lon="2.12712">
        <ele>74.032995386657</ele>
        <time>2018-10-03T14:43:26.691Z</time>
      </trkpt>
      <trkpt lat="49.42549" lon="2.12784">
        <ele>74.269438621107</ele>
        <time>2018-10-03T14:43:34.842Z</time>
      </trkpt>
      <trkpt lat="49.42548" lon="2.12794">
        <ele>74.302422524191</ele>
        <time>2018-10-03T14:43:36.491Z</time>
      </trkpt>
      <trkpt lat="49.42552" lon="2.12808">
        <ele>74.349710532674</ele>
        <time>2018-10-03T14:43:38.015Z</time>
      </trkpt>
      <trkpt lat="49.4258" lon="2.12824">
        <ele>74.493450340985</ele>
        <time>2018-10-03T14:43:43.464Z</time>
      </trkpt>
      <trkpt lat="49.42599" lon="2.12826">
        <ele>74.568580039447</ele>
        <time>2018-10-03T14:43:46.707Z</time>
      </trkpt>
      <trkpt lat="49.4266" lon="2.12854">
        <ele>74.613861406259</ele>
        <time>2018-10-03T14:43:58.396Z</time>
      </trkpt>
      <trkpt lat="49.42668" lon="2.12871">
        <ele>74.624045073122</ele>
        <time>2018-10-03T14:44:00.754Z</time>
      </trkpt>
      <trkpt lat="49.42639" lon="2.12965">
        <ele>74.672509714613</ele>
        <time>2018-10-03T14:44:11.443Z</time>
      </trkpt>
      <trkpt lat="49.42596" lon="2.13155">
        <ele>72.446076823995</ele>
        <time>2018-10-03T14:44:26.292Z</time>
      </trkpt>
      <trkpt lat="49.42597" lon="2.13176">
        <ele>72.134973025629</ele>
        <time>2018-10-03T14:44:27.645Z</time>
      </trkpt>
      <trkpt lat="49.42596" lon="2.13176">
        <ele>72.116141658618</ele>
        <time>2018-10-03T14:44:27.716Z</time>
      </trkpt>
      <trkpt lat="49.42589" lon="2.13188">
        <ele>71.884026169422</ele>
        <time>2018-10-03T14:44:28.885Z</time>
      </trkpt>
      <trkpt lat="49.42591" lon="2.13204">
        <ele>71.649768275455</ele>
        <time>2018-10-03T14:44:30.063Z</time>
      </trkpt>
      <trkpt lat="49.42592" lon="2.13207">
        <ele>71.600946051446</ele>
        <time>2018-10-03T14:44:30.285Z</time>
      </trkpt>
      <trkpt lat="49.42582" lon="2.13217">
        <ele>71.346166121818</ele>
        <time>2018-10-03T14:44:31.369Z</time>
      </trkpt>
      <trkpt lat="49.42551" lon="2.1332">
        <ele>69.666542869411</ele>
        <time>2018-10-03T14:44:38.909Z</time>
      </trkpt>
      <trkpt lat="49.42517" lon="2.13477">
        <ele>67.210998622099</ele>
        <time>2018-10-03T14:44:50.441Z</time>
      </trkpt>
      <trkpt lat="49.42459" lon="2.13665">
        <ele>65.899514247973</ele>
        <time>2018-10-03T14:45:07.523Z</time>
      </trkpt>
      <trkpt lat="49.42192" lon="2.14552">
        <ele>63.91861481289</ele>
        <time>2018-10-03T14:46:37.026Z</time>
      </trkpt>
      <trkpt lat="49.42072" lon="2.14977">
        <ele>61.379729724472</ele>
        <time>2018-10-03T14:47:13.405Z</time>
      </trkpt>
      <trkpt lat="49.42057" lon="2.15034">
        <ele>61.173737739255</ele>
        <time>2018-10-03T14:47:19.405Z</time>
      </trkpt>
      <trkpt lat="49.42004" lon="2.15274">
        <ele>62.782853997138</ele>
        <time>2018-10-03T14:47:51.598Z</time>
      </trkpt>
      <trkpt lat="49.41976" lon="2.154">
        <ele>63.946464210212</ele>
        <time>2018-10-03T14:48:09.285Z</time>
      </trkpt>
      <trkpt lat="49.41964" lon="2.15452">
        <ele>64.444053421514</ele>
        <time>2018-10-03T14:48:16.586Z</time>
      </trkpt>
      <trkpt lat="49.41949" lon="2.15512">
        <ele>65.020415124185</ele>
        <time>2018-10-03T14:48:25.282Z</time>
      </trkpt>
      <trkpt lat="49.4194" lon="2.15555">
        <ele>65.404849858493</ele>
        <time>2018-10-03T14:48:31.770Z</time>
      </trkpt>
      <trkpt lat="49.41923" lon="2.15656">
        <ele>65.787238498137</ele>
        <time>2018-10-03T14:48:45.185Z</time>
      </trkpt>
      <trkpt lat="49.41907" lon="2.15724">
        <ele>66.058071796602</ele>
        <time>2018-10-03T14:48:53.179Z</time>
      </trkpt>
      <trkpt lat="49.41894" lon="2.15776">
        <ele>66.261830982222</ele>
        <time>2018-10-03T14:48:58.687Z</time>
      </trkpt>
      <trkpt lat="49.41876" lon="2.15834">
        <ele>66.19073850562</ele>
        <time>2018-10-03T14:49:04.435Z</time>
      </trkpt>
      <trkpt lat="49.41863" lon="2.15872">
        <ele>65.834415208204</ele>
        <time>2018-10-03T14:49:07.961Z</time>
      </trkpt>
      <trkpt lat="49.41856" lon="2.15869">
        <ele>65.746157798932</ele>
        <time>2018-10-03T14:49:09.091Z</time>
      </trkpt>
      <trkpt lat="49.41846" lon="2.15868">
        <ele>65.615186500064</ele>
        <time>2018-10-03T14:49:10.840Z</time>
      </trkpt>
      <trkpt lat="49.41834" lon="2.15871">
        <ele>65.45922492747</ele>
        <time>2018-10-03T14:49:12.822Z</time>
      </trkpt>
      <trkpt lat="49.41775" lon="2.15915">
        <ele>64.627814163294</ele>
        <time>2018-10-03T14:49:23.302Z</time>
      </trkpt>
      <trkpt lat="49.41744" lon="2.15957">
        <ele>64.126878878525</ele>
        <time>2018-10-03T14:49:29.902Z</time>
      </trkpt>
      <trkpt lat="49.4172" lon="2.15989">
        <ele>64.19523021548</ele>
        <time>2018-10-03T14:49:35.388Z</time>
      </trkpt>
      <trkpt lat="49.41707" lon="2.16007">
        <ele>64.231448097744</ele>
        <time>2018-10-03T14:49:38.379Z</time>
      </trkpt>
      <trkpt lat="49.41631" lon="2.16105">
        <ele>64.442309860878</ele>
        <time>2018-10-03T14:49:59.671Z</time>
      </trkpt>
      <trkpt lat="49.41601" lon="2.16141">
        <ele>64.703899586247</ele>
        <time>2018-10-03T14:50:10.445Z</time>
      </trkpt>
      <trkpt lat="49.41594" lon="2.16156">
        <ele>64.994846499504</ele>
        <time>2018-10-03T14:50:13.602Z</time>
      </trkpt>
      <trkpt lat="49.41584" lon="2.16158">
        <ele>65.243483779468</ele>
        <time>2018-10-03T14:50:16.757Z</time>
      </trkpt>
      <trkpt lat="49.41554" lon="2.16186">
        <ele>66.126520694304</ele>
        <time>2018-10-03T14:50:28.080Z</time>
      </trkpt>
      <trkpt lat="49.415" lon="2.16251">
        <ele>67.817556494455</ele>
        <time>2018-10-03T14:50:49.569Z</time>
      </trkpt>
      <trkpt lat="49.4149" lon="2.16263">
        <ele>68.128167923793</ele>
        <time>2018-10-03T14:50:53.535Z</time>
      </trkpt>
      <trkpt lat="49.41487" lon="2.16268">
        <ele>68.233326023966</ele>
        <time>2018-10-03T14:50:55.391Z</time>
      </trkpt>
      <trkpt lat="49.41353" lon="2.16425">
        <ele>70.925230229873</ele>
        <time>2018-10-03T14:51:43.180Z</time>
      </trkpt>
      <trkpt lat="49.4134" lon="2.16439">
        <ele>71.148566694098</ele>
        <time>2018-10-03T14:51:46.847Z</time>
      </trkpt>
      <trkpt lat="49.41312" lon="2.16471">
        <ele>71.302404788208</ele>
        <time>2018-10-03T14:51:53.672Z</time>
      </trkpt>
      <trkpt lat="49.41228" lon="2.16573">
        <ele>69.299150644993</ele>
        <time>2018-10-03T14:52:11.131Z</time>
      </trkpt>
      <trkpt lat="49.41193" lon="2.16626">
        <ele>68.37980982924</ele>
        <time>2018-10-03T14:52:18.336Z</time>
      </trkpt>
      <trkpt lat="49.41155" lon="2.16701">
        <ele>66.583981461703</ele>
        <time>2018-10-03T14:52:27.251Z</time>
      </trkpt>
      <trkpt lat="49.41075" lon="2.16897">
        <ele>62.15084221318</ele>
        <time>2018-10-03T14:52:49.182Z</time>
      </trkpt>
      <trkpt lat="49.41072" lon="2.16903">
        <ele>62.103753333252</ele>
        <time>2018-10-03T14:52:49.786Z</time>
      </trkpt>
      <trkpt lat="49.41039" lon="2.16984">
        <ele>61.443914218076</ele>
        <time>2018-10-03T14:52:59.640Z</time>
      </trkpt>
      <trkpt lat="49.40775" lon="2.17636">
        <ele>57.581162717716</ele>
        <time>2018-10-03T14:54:31.724Z</time>
      </trkpt>
      <trkpt lat="49.40756" lon="2.17681">
        <ele>57.575195153546</ele>
        <time>2018-10-03T14:54:38.811Z</time>
      </trkpt>
      <trkpt lat="49.40751" lon="2.17693">
        <ele>57.57361047664</ele>
        <time>2018-10-03T14:54:40.705Z</time>
      </trkpt>
      <trkpt lat="49.4064" lon="2.17963">
        <ele>57.878747077372</ele>
        <time>2018-10-03T14:55:25.024Z</time>
      </trkpt>
      <trkpt lat="49.40529" lon="2.18156">
        <ele>58.227678746745</ele>
        <time>2018-10-03T14:56:00.928Z</time>
      </trkpt>
      <trkpt lat="49.40501" lon="2.18213">
        <ele>58.306572984854</ele>
        <time>2018-10-03T14:56:10.353Z</time>
      </trkpt>
      <trkpt lat="49.40497" lon="2.18223">
        <ele>58.320402842195</ele>
        <time>2018-10-03T14:56:12.085Z</time>
      </trkpt>
      <trkpt lat="49.40484" lon="2.18258">
        <ele>58.336906640637</ele>
        <time>2018-10-03T14:56:17.271Z</time>
      </trkpt>
      <trkpt lat="49.4045" lon="2.18377">
        <ele>58.127255448123</ele>
        <time>2018-10-03T14:56:34.253Z</time>
      </trkpt>
      <trkpt lat="49.40451" lon="2.18385">
        <ele>58.113437577462</ele>
        <time>2018-10-03T14:56:35.309Z</time>
      </trkpt>
      <trkpt lat="49.40435" lon="2.18432">
        <ele>58.028327644659</ele>
        <time>2018-10-03T14:56:40.066Z</time>
      </trkpt>
      <trkpt lat="49.40368" lon="2.18592">
        <ele>57.486913357211</ele>
        <time>2018-10-03T14:56:56.306Z</time>
      </trkpt>
      <trkpt lat="49.40364" lon="2.186">
        <ele>57.451827377012</ele>
        <time>2018-10-03T14:56:57.091Z</time>
      </trkpt>
      <trkpt lat="49.4029" lon="2.18772">
        <ele>56.819531097646</ele>
        <time>2018-10-03T14:57:14.996Z</time>
      </trkpt>
      <trkpt lat="49.40259" lon="2.18843">
        <ele>56.695267949203</ele>
        <time>2018-10-03T14:57:22.435Z</time>
      </trkpt>
      <trkpt lat="49.40238" lon="2.18891">
        <ele>56.608934692885</ele>
        <time>2018-10-03T14:57:27.809Z</time>
      </trkpt>
      <trkpt lat="49.40235" lon="2.18888">
        <ele>56.600161767511</ele>
        <time>2018-10-03T14:57:28.562Z</time>
      </trkpt>
      <trkpt lat="49.40163" lon="2.19037">
        <ele>56.555312022776</ele>
        <time>2018-10-03T14:57:53.615Z</time>
      </trkpt>
      <trkpt lat="49.40151" lon="2.19075">
        <ele>56.577330576458</ele>
        <time>2018-10-03T14:57:59.323Z</time>
      </trkpt>
      <trkpt lat="49.40132" lon="2.19115">
        <ele>56.603164701866</ele>
        <time>2018-10-03T14:58:05.930Z</time>
      </trkpt>
      <trkpt lat="49.4012" lon="2.19145">
        <ele>56.621348695816</ele>
        <time>2018-10-03T14:58:10.502Z</time>
      </trkpt>
      <trkpt lat="49.40107" lon="2.19177">
        <ele>56.637361936182</ele>
        <time>2018-10-03T14:58:15.729Z</time>
      </trkpt>
      <trkpt lat="49.4003" lon="2.19345">
        <ele>56.480088540231</ele>
        <time>2018-10-03T14:58:42.553Z</time>
      </trkpt>
      <trkpt lat="49.39836" lon="2.19665">
        <ele>55.879246608697</ele>
        <time>2018-10-03T14:59:36.615Z</time>
      </trkpt>
      <trkpt lat="49.39764" lon="2.198">
        <ele>55.979348723582</ele>
        <time>2018-10-03T15:00:00.725Z</time>
      </trkpt>
      <trkpt lat="49.39752" lon="2.19827">
        <ele>56.051884005309</ele>
        <time>2018-10-03T15:00:05.339Z</time>
      </trkpt>
      <trkpt lat="49.39744" lon="2.19847">
        <ele>56.12049056491</ele>
        <time>2018-10-03T15:00:08.837Z</time>
      </trkpt>
      <trkpt lat="49.3968" lon="2.19993">
        <ele>56.628358075372</ele>
        <time>2018-10-03T15:00:34.506Z</time>
      </trkpt>
      <trkpt lat="49.39637" lon="2.20077">
        <ele>56.874101688775</ele>
        <time>2018-10-03T15:00:49.758Z</time>
      </trkpt>
      <trkpt lat="49.39557" lon="2.20216">
        <ele>57.185393955519</ele>
        <time>2018-10-03T15:01:15.441Z</time>
      </trkpt>
      <trkpt lat="49.39555" lon="2.20219">
        <ele>57.19318229359</ele>
        <time>2018-10-03T15:01:15.986Z</time>
      </trkpt>
      <trkpt lat="49.3953" lon="2.20267">
        <ele>57.253783740945</ele>
        <time>2018-10-03T15:01:24.496Z</time>
      </trkpt>
      <trkpt lat="49.39375" lon="2.20542">
        <ele>57.274729056344</ele>
        <time>2018-10-03T15:02:12.310Z</time>
      </trkpt>
      <trkpt lat="49.39363" lon="2.20563">
        <ele>57.268694218551</ele>
        <time>2018-10-03T15:02:15.839Z</time>
      </trkpt>
      <trkpt lat="49.39355" lon="2.20577">
        <ele>57.264707596715</ele>
        <time>2018-10-03T15:02:18.147Z</time>
      </trkpt>
      <trkpt lat="49.39286" lon="2.20708">
        <ele>57.277812303922</ele>
        <time>2018-10-03T15:02:40.400Z</time>
      </trkpt>
      <trkpt lat="49.39289" lon="2.20713">
        <ele>57.282767491736</ele>
        <time>2018-10-03T15:02:41.244Z</time>
      </trkpt>
      <trkpt lat="49.39277" lon="2.20735">
        <ele>57.301972011475</ele>
        <time>2018-10-03T15:02:43.960Z</time>
      </trkpt>
      <trkpt lat="49.39275" lon="2.2074">
        <ele>57.306247093262</ele>
        <time>2018-10-03T15:02:44.551Z</time>
      </trkpt>
      <trkpt lat="49.39265" lon="2.20759">
        <ele>57.323456245803</ele>
        <time>2018-10-03T15:02:46.856Z</time>
      </trkpt>
      <trkpt lat="49.3922" lon="2.20839">
        <ele>57.397021213053</ele>
        <time>2018-10-03T15:02:57.717Z</time>
      </trkpt>
      <trkpt lat="49.39206" lon="2.20864">
        <ele>57.419693179003</ele>
        <time>2018-10-03T15:03:01.160Z</time>
      </trkpt>
      <trkpt lat="49.39195" lon="2.20882">
        <ele>57.427522828975</ele>
        <time>2018-10-03T15:03:03.676Z</time>
      </trkpt>
      <trkpt lat="49.3917" lon="2.20929">
        <ele>57.390381881584</ele>
        <time>2018-10-03T15:03:10.336Z</time>
      </trkpt>
      <trkpt lat="49.39116" lon="2.21074">
        <ele>57.289340473173</ele>
        <time>2018-10-03T15:03:25.722Z</time>
      </trkpt>
      <trkpt lat="49.39083" lon="2.21148">
        <ele>57.036749262246</ele>
        <time>2018-10-03T15:03:33.508Z</time>
      </trkpt>
      <trkpt lat="49.39046" lon="2.21213">
        <ele>56.636036109404</ele>
        <time>2018-10-03T15:03:40.664Z</time>
      </trkpt>
      <trkpt lat="49.38993" lon="2.2129">
        <ele>56.109646584391</ele>
        <time>2018-10-03T15:03:49.932Z</time>
      </trkpt>
      <trkpt lat="49.38982" lon="2.21302">
        <ele>56.010998381173</ele>
        <time>2018-10-03T15:03:51.609Z</time>
      </trkpt>
      <trkpt lat="49.38956" lon="2.21334">
        <ele>55.710944067234</ele>
        <time>2018-10-03T15:03:55.710Z</time>
      </trkpt>
      <trkpt lat="49.38915" lon="2.21376">
        <ele>55.253678168643</ele>
        <time>2018-10-03T15:04:01.560Z</time>
      </trkpt>
      <trkpt lat="49.38856" lon="2.21437">
        <ele>54.580202799423</ele>
        <time>2018-10-03T15:04:10.317Z</time>
      </trkpt>
      <trkpt lat="49.3884" lon="2.21453">
        <ele>54.398778201262</ele>
        <time>2018-10-03T15:04:12.805Z</time>
      </trkpt>
      <trkpt lat="49.38831" lon="2.21463">
        <ele>54.294819736999</ele>
        <time>2018-10-03T15:04:14.262Z</time>
      </trkpt>
      <trkpt lat="49.3882" lon="2.21465">
        <ele>54.246520647158</ele>
        <time>2018-10-03T15:04:16.022Z</time>
      </trkpt>
      <trkpt lat="49.3879" lon="2.21504">
        <ele>54.09018405791</ele>
        <time>2018-10-03T15:04:23.437Z</time>
      </trkpt>
      <trkpt lat="49.38745" lon="2.21574">
        <ele>53.842883227927</ele>
        <time>2018-10-03T15:04:35.307Z</time>
      </trkpt>
      <trkpt lat="49.38572" lon="2.21865">
        <ele>53.320886578967</ele>
        <time>2018-10-03T15:05:26.877Z</time>
      </trkpt>
      <trkpt lat="49.38429" lon="2.22054">
        <ele>52.300304014738</ele>
        <time>2018-10-03T15:06:00.670Z</time>
      </trkpt>
      <trkpt lat="49.38412" lon="2.22065">
        <ele>52.286107559721</ele>
        <time>2018-10-03T15:06:04.287Z</time>
      </trkpt>
      <trkpt lat="49.38406" lon="2.22071">
        <ele>52.28084899467</ele>
        <time>2018-10-03T15:06:05.483Z</time>
      </trkpt>
      <trkpt lat="49.38403" lon="2.22075">
        <ele>52.277774356135</ele>
        <time>2018-10-03T15:06:06.221Z</time>
      </trkpt>
      <trkpt lat="49.38316" lon="2.22202">
        <ele>52.184201881575</ele>
        <time>2018-10-03T15:06:30.684Z</time>
      </trkpt>
      <trkpt lat="49.38314" lon="2.2221">
        <ele>52.180309792934</ele>
        <time>2018-10-03T15:06:31.811Z</time>
      </trkpt>
      <trkpt lat="49.38311" lon="2.22231">
        <ele>52.210578416181</ele>
        <time>2018-10-03T15:06:34.864Z</time>
      </trkpt>
      <trkpt lat="49.38297" lon="2.22276">
        <ele>52.371146790101</ele>
        <time>2018-10-03T15:06:42.485Z</time>
      </trkpt>
      <trkpt lat="49.38282" lon="2.22354">
        <ele>52.627662259316</ele>
        <time>2018-10-03T15:06:54.757Z</time>
      </trkpt>
      <trkpt lat="49.38264" lon="2.22557">
        <ele>53.045171157386</ele>
        <time>2018-10-03T15:07:24.035Z</time>
      </trkpt>
      <trkpt lat="49.38262" lon="2.22569">
        <ele>53.044441075902</ele>
        <time>2018-10-03T15:07:25.791Z</time>
      </trkpt>
      <trkpt lat="49.38261" lon="2.2258">
        <ele>53.043815774012</ele>
        <time>2018-10-03T15:07:27.138Z</time>
      </trkpt>
      <trkpt lat="49.38241" lon="2.22659">
        <ele>53.038952047046</ele>
        <time>2018-10-03T15:07:38.161Z</time>
      </trkpt>
      <trkpt lat="49.38228" lon="2.22695">
        <ele>53.036573333822</ele>
        <time>2018-10-03T15:07:43.401Z</time>
      </trkpt>
      <trkpt lat="49.38132" lon="2.2289">
        <ele>52.571871213784</ele>
        <time>2018-10-03T15:08:13.530Z</time>
      </trkpt>
      <trkpt lat="49.38047" lon="2.23017">
        <ele>52.036469248264</ele>
        <time>2018-10-03T15:08:35.942Z</time>
      </trkpt>
      <trkpt lat="49.38028" lon="2.23029">
        <ele>51.926328180006</ele>
        <time>2018-10-03T15:08:39.838Z</time>
      </trkpt>
      <trkpt lat="49.38019" lon="2.23058">
        <ele>51.817665073494</ele>
        <time>2018-10-03T15:08:43.684Z</time>
      </trkpt>
      <trkpt lat="49.37936" lon="2.23164">
        <ele>51.257639650961</ele>
        <time>2018-10-03T15:09:03.395Z</time>
      </trkpt>
      <trkpt lat="49.37923" lon="2.23181">
        <ele>51.168165242173</ele>
        <time>2018-10-03T15:09:06.527Z</time>
      </trkpt>
      <trkpt lat="49.37914" lon="2.23193">
        <ele>51.106170156997</ele>
        <time>2018-10-03T15:09:08.712Z</time>
      </trkpt>
      <trkpt lat="49.37906" lon="2.23203">
        <ele>51.053892646748</ele>
        <time>2018-10-03T15:09:10.525Z</time>
      </trkpt>
      <trkpt lat="49.37908" lon="2.23211">
        <ele>51.027967892802</ele>
        <time>2018-10-03T15:09:11.188Z</time>
      </trkpt>
      <trkpt lat="49.37792" lon="2.23371">
        <ele>50.358740077739</ele>
        <time>2018-10-03T15:09:32.028Z</time>
      </trkpt>
      <trkpt lat="49.37776" lon="2.23392">
        <ele>50.308481011352</ele>
        <time>2018-10-03T15:09:34.941Z</time>
      </trkpt>
      <trkpt lat="49.37617" lon="2.23605">
        <ele>49.889544867647</ele>
        <time>2018-10-03T15:10:05.106Z</time>
      </trkpt>
      <trkpt lat="49.37434" lon="2.23847">
        <ele>49.453309723174</ele>
        <time>2018-10-03T15:10:39.499Z</time>
      </trkpt>
      <trkpt lat="49.37417" lon="2.2387">
        <ele>49.403879982104</ele>
        <time>2018-10-03T15:10:42.659Z</time>
      </trkpt>
      <trkpt lat="49.37016" lon="2.24403">
        <ele>48.111211703847</ele>
        <time>2018-10-03T15:11:56.356Z</time>
      </trkpt>
      <trkpt lat="49.36988" lon="2.24442">
        <ele>48.481425117685</ele>
        <time>2018-10-03T15:12:02.302Z</time>
      </trkpt>
      <trkpt lat="49.36961" lon="2.24477">
        <ele>48.839038653418</ele>
        <time>2018-10-03T15:12:08.222Z</time>
      </trkpt>
      <trkpt lat="49.36887" lon="2.24557">
        <ele>49.767238437075</ele>
        <time>2018-10-03T15:12:26.014Z</time>
      </trkpt>
      <trkpt lat="49.36858" lon="2.2458">
        <ele>50.527773732671</ele>
        <time>2018-10-03T15:12:33.655Z</time>
      </trkpt>
      <trkpt lat="49.36799" lon="2.24616">
        <ele>52.936597173839</ele>
        <time>2018-10-03T15:12:50.800Z</time>
      </trkpt>
      <trkpt lat="49.36792" lon="2.2462">
        <ele>53.212519171471</ele>
        <time>2018-10-03T15:12:52.900Z</time>
      </trkpt>
      <trkpt lat="49.36778" lon="2.24628">
        <ele>53.782085166921</ele>
        <time>2018-10-03T15:12:57.246Z</time>
      </trkpt>
      <trkpt lat="49.36741" lon="2.24649">
        <ele>55.285860668635</ele>
        <time>2018-10-03T15:13:10.357Z</time>
      </trkpt>
      <trkpt lat="49.36718" lon="2.24662">
        <ele>56.197081305781</ele>
        <time>2018-10-03T15:13:19.134Z</time>
      </trkpt>
      <trkpt lat="49.36652" lon="2.2469">
        <ele>59.641469859178</ele>
        <time>2018-10-03T15:13:44.642Z</time>
      </trkpt>
      <trkpt lat="49.36627" lon="2.24698">
        <ele>61.044764942669</ele>
        <time>2018-10-03T15:13:54.763Z</time>
      </trkpt>
      <trkpt lat="49.36602" lon="2.24703">
        <ele>62.365247715153</ele>
        <time>2018-10-03T15:14:04.488Z</time>
      </trkpt>
      <trkpt lat="49.36575" lon="2.24707">
        <ele>63.815486460758</ele>
        <time>2018-10-03T15:14:14.708Z</time>
      </trkpt>
      <trkpt lat="49.36548" lon="2.2471">
        <ele>65.298908640842</ele>
        <time>2018-10-03T15:14:24.578Z</time>
      </trkpt>
      <trkpt lat="49.36495" lon="2.24711">
        <ele>67.250843319018</ele>
        <time>2018-10-03T15:14:42.236Z</time>
      </trkpt>
      <trkpt lat="49.36493" lon="2.24711">
        <ele>67.311110724724</ele>
        <time>2018-10-03T15:14:43.276Z</time>
      </trkpt>
      <trkpt lat="49.36349" lon="2.24717">
        <ele>71.073777881081</ele>
        <time>2018-10-03T15:15:17.295Z</time>
      </trkpt>
      <trkpt lat="49.36323" lon="2.24719">
        <ele>71.232925345397</ele>
        <time>2018-10-03T15:15:21.421Z</time>
      </trkpt>
      <trkpt lat="49.36235" lon="2.24721">
        <ele>71.57486249726</ele>
        <time>2018-10-03T15:15:34.714Z</time>
      </trkpt>
      <trkpt lat="49.36037" lon="2.24728">
        <ele>72.251003518943</ele>
        <time>2018-10-03T15:16:05.757Z</time>
      </trkpt>
      <trkpt lat="49.35968" lon="2.24732">
        <ele>72.35541699909</ele>
        <time>2018-10-03T15:16:18.145Z</time>
      </trkpt>
      <trkpt lat="49.3592" lon="2.24744">
        <ele>72.224006440346</ele>
        <time>2018-10-03T15:16:25.746Z</time>
      </trkpt>
      <trkpt lat="49.35882" lon="2.24765">
        <ele>72.113645943584</ele>
        <time>2018-10-03T15:16:31.655Z</time>
      </trkpt>
      <trkpt lat="49.35862" lon="2.24778">
        <ele>72.05486015402</ele>
        <time>2018-10-03T15:16:34.711Z</time>
      </trkpt>
      <trkpt lat="49.35834" lon="2.24807">
        <ele>71.962867781551</ele>
        <time>2018-10-03T15:16:38.955Z</time>
      </trkpt>
      <trkpt lat="49.3582" lon="2.24822">
        <ele>71.900059856904</ele>
        <time>2018-10-03T15:16:40.906Z</time>
      </trkpt>
      <trkpt lat="49.35777" lon="2.24892">
        <ele>70.322777523121</ele>
        <time>2018-10-03T15:16:47.993Z</time>
      </trkpt>
      <trkpt lat="49.35691" lon="2.25095">
        <ele>65.883142772216</ele>
        <time>2018-10-03T15:17:04.087Z</time>
      </trkpt>
      <trkpt lat="49.35586" lon="2.25359">
        <ele>58.681991227762</ele>
        <time>2018-10-03T15:17:23.935Z</time>
      </trkpt>
      <trkpt lat="49.35557" lon="2.25438">
        <ele>56.712450048909</ele>
        <time>2018-10-03T15:17:29.905Z</time>
      </trkpt>
      <trkpt lat="49.35548" lon="2.25469">
        <ele>55.986602269085</ele>
        <time>2018-10-03T15:17:32.149Z</time>
      </trkpt>
      <trkpt lat="49.35537" lon="2.25506">
        <ele>55.10804613675</ele>
        <time>2018-10-03T15:17:34.908Z</time>
      </trkpt>
      <trkpt lat="49.35515" lon="2.25623">
        <ele>53.880913215735</ele>
        <time>2018-10-03T15:17:43.490Z</time>
      </trkpt>
      <trkpt lat="49.35505" lon="2.25709">
        <ele>53.133584992315</ele>
        <time>2018-10-03T15:17:50.335Z</time>
      </trkpt>
      <trkpt lat="49.35501" lon="2.25821">
        <ele>52.542160941973</ele>
        <time>2018-10-03T15:18:00.300Z</time>
      </trkpt>
      <trkpt lat="49.35499" lon="2.25991">
        <ele>53.118326348565</ele>
        <time>2018-10-03T15:18:19.306Z</time>
      </trkpt>
      <trkpt lat="49.355" lon="2.26034">
        <ele>53.264863123663</ele>
        <time>2018-10-03T15:18:24.514Z</time>
      </trkpt>
      <trkpt lat="49.35502" lon="2.26086">
        <ele>53.517519237398</ele>
        <time>2018-10-03T15:18:30.970Z</time>
      </trkpt>
      <trkpt lat="49.35503" lon="2.26097">
        <ele>53.602568643939</ele>
        <time>2018-10-03T15:18:32.677Z</time>
      </trkpt>
      <trkpt lat="49.35556" lon="2.26662">
        <ele>57.252540838046</ele>
        <time>2018-10-03T15:19:44.777Z</time>
      </trkpt>
      <trkpt lat="49.35564" lon="2.26757">
        <ele>57.099564317485</ele>
        <time>2018-10-03T15:19:54.097Z</time>
      </trkpt>
      <trkpt lat="49.35564" lon="2.26761">
        <ele>57.093830230976</ele>
        <time>2018-10-03T15:19:54.348Z</time>
      </trkpt>
      <trkpt lat="49.35563" lon="2.26908">
        <ele>56.664581781107</ele>
        <time>2018-10-03T15:20:06.367Z</time>
      </trkpt>
      <trkpt lat="49.35552" lon="2.27013">
        <ele>55.505644773524</ele>
        <time>2018-10-03T15:20:14.264Z</time>
      </trkpt>
      <trkpt lat="49.35544" lon="2.2706">
        <ele>54.977532072612</ele>
        <time>2018-10-03T15:20:17.816Z</time>
      </trkpt>
      <trkpt lat="49.3553" lon="2.27131">
        <ele>54.170104900941</ele>
        <time>2018-10-03T15:20:23.190Z</time>
      </trkpt>
      <trkpt lat="49.35512" lon="2.272">
        <ele>53.211959552512</ele>
        <time>2018-10-03T15:20:28.442Z</time>
      </trkpt>
      <trkpt lat="49.35477" lon="2.27304">
        <ele>51.544324000692</ele>
        <time>2018-10-03T15:20:36.615Z</time>
      </trkpt>
      <trkpt lat="49.3541" lon="2.2744">
        <ele>49.403279972668</ele>
        <time>2018-10-03T15:20:48.665Z</time>
      </trkpt>
      <trkpt lat="49.35408" lon="2.27442">
        <ele>49.369478005159</ele>
        <time>2018-10-03T15:20:48.871Z</time>
      </trkpt>
      <trkpt lat="49.35282" lon="2.27636">
        <ele>47.405001554526</ele>
        <time>2018-10-03T15:21:10.362Z</time>
      </trkpt>
      <trkpt lat="49.35277" lon="2.27642">
        <ele>47.410493086211</ele>
        <time>2018-10-03T15:21:11.212Z</time>
      </trkpt>
      <trkpt lat="49.35195" lon="2.27767">
        <ele>47.512598209146</ele>
        <time>2018-10-03T15:21:30.328Z</time>
      </trkpt>
      <trkpt lat="49.35119" lon="2.27869">
        <ele>48.021999728195</ele>
        <time>2018-10-03T15:21:48.783Z</time>
      </trkpt>
      <trkpt lat="49.35067" lon="2.27967">
        <ele>48.514597433822</ele>
        <time>2018-10-03T15:22:03.163Z</time>
      </trkpt>
      <trkpt lat="49.35017" lon="2.2807">
        <ele>48.382035166064</ele>
        <time>2018-10-03T15:22:15.744Z</time>
      </trkpt>
      <trkpt lat="49.35015" lon="2.28075">
        <ele>48.370396485491</ele>
        <time>2018-10-03T15:22:16.208Z</time>
      </trkpt>
      <trkpt lat="49.35004" lon="2.28096">
        <ele>48.310271608199</ele>
        <time>2018-10-03T15:22:18.735Z</time>
      </trkpt>
      <trkpt lat="49.34975" lon="2.28149">
        <ele>48.163400998562</ele>
        <time>2018-10-03T15:22:24.634Z</time>
      </trkpt>
      <trkpt lat="49.34927" lon="2.28241">
        <ele>47.82097569516</ele>
        <time>2018-10-03T15:22:34.198Z</time>
      </trkpt>
      <trkpt lat="49.34899" lon="2.28299">
        <ele>47.524183594966</ele>
        <time>2018-10-03T15:22:40.035Z</time>
      </trkpt>
      <trkpt lat="49.34882" lon="2.28333">
        <ele>47.350112028459</ele>
        <time>2018-10-03T15:22:43.576Z</time>
      </trkpt>
      <trkpt lat="49.34861" lon="2.28391">
        <ele>47.077503715407</ele>
        <time>2018-10-03T15:22:49.333Z</time>
      </trkpt>
      <trkpt lat="49.34844" lon="2.28452">
        <ele>46.902092335958</ele>
        <time>2018-10-03T15:22:55.290Z</time>
      </trkpt>
      <trkpt lat="49.34828" lon="2.28569">
        <ele>46.94630465268</ele>
        <time>2018-10-03T15:23:07.174Z</time>
      </trkpt>
      <trkpt lat="49.34826" lon="2.28628">
        <ele>46.968011607937</ele>
        <time>2018-10-03T15:23:13.280Z</time>
      </trkpt>
      <trkpt lat="49.34826" lon="2.28634">
        <ele>46.970187748992</ele>
        <time>2018-10-03T15:23:13.904Z</time>
      </trkpt>
      <trkpt lat="49.34824" lon="2.28717">
        <ele>46.971010421357</ele>
        <time>2018-10-03T15:23:22.405Z</time>
      </trkpt>
      <trkpt lat="49.34822" lon="2.28743">
        <ele>46.915950005615</ele>
        <time>2018-10-03T15:23:25.078Z</time>
      </trkpt>
      <trkpt lat="49.34816" lon="2.28793">
        <ele>46.809469490201</ele>
        <time>2018-10-03T15:23:29.871Z</time>
      </trkpt>
      <trkpt lat="49.34801" lon="2.28887">
        <ele>46.607440467417</ele>
        <time>2018-10-03T15:23:38.324Z</time>
      </trkpt>
      <trkpt lat="49.34792" lon="2.28964">
        <ele>46.443501839378</ele>
        <time>2018-10-03T15:23:44.951Z</time>
      </trkpt>
      <trkpt lat="49.34792" lon="2.28969">
        <ele>46.433162482577</ele>
        <time>2018-10-03T15:23:45.366Z</time>
      </trkpt>
      <trkpt lat="49.3479" lon="2.29021">
        <ele>46.280317175991</ele>
        <time>2018-10-03T15:23:49.773Z</time>
      </trkpt>
      <trkpt lat="49.34788" lon="2.29117">
        <ele>45.98233363589</ele>
        <time>2018-10-03T15:23:57.989Z</time>
      </trkpt>
      <trkpt lat="49.34787" lon="2.29149">
        <ele>45.885067335289</ele>
        <time>2018-10-03T15:24:00.663Z</time>
      </trkpt>
      <trkpt lat="49.34783" lon="2.29224">
        <ele>45.652761864961</ele>
        <time>2018-10-03T15:24:07.218Z</time>
      </trkpt>
      <trkpt lat="49.34741" lon="2.29502">
        <ele>45.586788873941</ele>
        <time>2018-10-03T15:24:35.015Z</time>
      </trkpt>
      <trkpt lat="49.34728" lon="2.29588">
        <ele>45.725799961952</ele>
        <time>2018-10-03T15:24:44.086Z</time>
      </trkpt>
      <trkpt lat="49.34726" lon="2.29607">
        <ele>45.762633738838</ele>
        <time>2018-10-03T15:24:46.083Z</time>
      </trkpt>
      <trkpt lat="49.3472" lon="2.29669">
        <ele>45.887315001463</ele>
        <time>2018-10-03T15:24:52.823Z</time>
      </trkpt>
      <trkpt lat="49.34712" lon="2.29969">
        <ele>46.573762149802</ele>
        <time>2018-10-03T15:25:25.003Z</time>
      </trkpt>
      <trkpt lat="49.34711" lon="2.29993">
        <ele>46.633961497833</ele>
        <time>2018-10-03T15:25:27.469Z</time>
      </trkpt>
      <trkpt lat="49.3471" lon="2.30019">
        <ele>46.699188687708</ele>
        <time>2018-10-03T15:25:30.315Z</time>
      </trkpt>
      <trkpt lat="49.34707" lon="2.30054">
        <ele>46.789622497515</ele>
        <time>2018-10-03T15:25:34.045Z</time>
      </trkpt>
      <trkpt lat="49.34704" lon="2.30087">
        <ele>46.873672144219</ele>
        <time>2018-10-03T15:25:37.668Z</time>
      </trkpt>
      <trkpt lat="49.34693" lon="2.30153">
        <ele>47.044079502255</ele>
        <time>2018-10-03T15:25:44.513Z</time>
      </trkpt>
      <trkpt lat="49.34668" lon="2.30252">
        <ele>47.311661497527</ele>
        <time>2018-10-03T15:25:55.557Z</time>
      </trkpt>
      <trkpt lat="49.34633" lon="2.30334">
        <ele>47.61029781765</ele>
        <time>2018-10-03T15:26:06.322Z</time>
      </trkpt>
      <trkpt lat="49.34586" lon="2.30422">
        <ele>48.268363123284</ele>
        <time>2018-10-03T15:26:19.746Z</time>
      </trkpt>
      <trkpt lat="49.34532" lon="2.30496">
        <ele>48.914968690556</ele>
        <time>2018-10-03T15:26:33.368Z</time>
      </trkpt>
      <trkpt lat="49.34497" lon="2.30533">
        <ele>49.375390755822</ele>
        <time>2018-10-03T15:26:41.709Z</time>
      </trkpt>
      <trkpt lat="49.34478" lon="2.30548">
        <ele>49.662148804988</ele>
        <time>2018-10-03T15:26:46.059Z</time>
      </trkpt>
      <trkpt lat="49.34422" lon="2.30589">
        <ele>50.471076627664</ele>
        <time>2018-10-03T15:26:58.379Z</time>
      </trkpt>
      <trkpt lat="49.34357" lon="2.3062">
        <ele>51.366655096387</ele>
        <time>2018-10-03T15:27:12.641Z</time>
      </trkpt>
      <trkpt lat="49.34315" lon="2.30635">
        <ele>51.756002962577</ele>
        <time>2018-10-03T15:27:21.234Z</time>
      </trkpt>
      <trkpt lat="49.34281" lon="2.30642">
        <ele>52.022197529389</ele>
        <time>2018-10-03T15:27:27.878Z</time>
      </trkpt>
      <trkpt lat="49.34277" lon="2.30642">
        <ele>52.056683487065</ele>
        <time>2018-10-03T15:27:28.703Z</time>
      </trkpt>
      <trkpt lat="49.34225" lon="2.3064">
        <ele>52.460942719918</ele>
        <time>2018-10-03T15:27:38.215Z</time>
      </trkpt>
      <trkpt lat="49.34175" lon="2.3063">
        <ele>52.853317663312</ele>
        <time>2018-10-03T15:27:46.468Z</time>
      </trkpt>
      <trkpt lat="49.34128" lon="2.30611">
        <ele>52.560143073257</ele>
        <time>2018-10-03T15:27:53.654Z</time>
      </trkpt>
      <trkpt lat="49.339" lon="2.3051">
        <ele>51.049388562471</ele>
        <time>2018-10-03T15:28:22.150Z</time>
      </trkpt>
      <trkpt lat="49.3374" lon="2.30439">
        <ele>51.51329617575</ele>
        <time>2018-10-03T15:28:49.142Z</time>
      </trkpt>
      <trkpt lat="49.33715" lon="2.30427">
        <ele>51.763712337903</ele>
        <time>2018-10-03T15:28:54.927Z</time>
      </trkpt>
      <trkpt lat="49.33642" lon="2.30395">
        <ele>52.438064647626</ele>
        <time>2018-10-03T15:29:10.888Z</time>
      </trkpt>
      <trkpt lat="49.33613" lon="2.30384">
        <ele>52.602470112797</ele>
        <time>2018-10-03T15:29:16.916Z</time>
      </trkpt>
      <trkpt lat="49.33596" lon="2.30381">
        <ele>52.694630032876</ele>
        <time>2018-10-03T15:29:20.332Z</time>
      </trkpt>
      <trkpt lat="49.33565" lon="2.30379">
        <ele>52.863668099817</ele>
        <time>2018-10-03T15:29:26.137Z</time>
      </trkpt>
      <trkpt lat="49.33505" lon="2.30391">
        <ele>53.193669670092</ele>
        <time>2018-10-03T15:29:36.264Z</time>
      </trkpt>
      <trkpt lat="49.33475" lon="2.30403">
        <ele>53.360507175036</ele>
        <time>2018-10-03T15:29:40.394Z</time>
      </trkpt>
      <trkpt lat="49.33441" lon="2.30426">
        <ele>52.860892705145</ele>
        <time>2018-10-03T15:29:44.807Z</time>
      </trkpt>
      <trkpt lat="49.33409" lon="2.30457">
        <ele>52.327765511273</ele>
        <time>2018-10-03T15:29:49.148Z</time>
      </trkpt>
      <trkpt lat="49.33386" lon="2.30487">
        <ele>51.915188786327</ele>
        <time>2018-10-03T15:29:52.532Z</time>
      </trkpt>
      <trkpt lat="49.33365" lon="2.30521">
        <ele>51.476673494035</ele>
        <time>2018-10-03T15:29:56.114Z</time>
      </trkpt>
      <trkpt lat="49.33329" lon="2.30599">
        <ele>50.558452974825</ele>
        <time>2018-10-03T15:30:03.093Z</time>
      </trkpt>
      <trkpt lat="49.33306" lon="2.30678">
        <ele>49.581099021843</ele>
        <time>2018-10-03T15:30:09.450Z</time>
      </trkpt>
      <trkpt lat="49.33236" lon="2.309">
        <ele>46.811965040952</ele>
        <time>2018-10-03T15:30:27.590Z</time>
      </trkpt>
      <trkpt lat="49.33215" lon="2.30966">
        <ele>45.997979400358</ele>
        <time>2018-10-03T15:30:32.862Z</time>
      </trkpt>
      <trkpt lat="49.33178" lon="2.31086">
        <ele>44.568638271838</ele>
        <time>2018-10-03T15:30:42.624Z</time>
      </trkpt>
      <trkpt lat="49.33089" lon="2.31302">
        <ele>42.834014791485</ele>
        <time>2018-10-03T15:31:02.711Z</time>
      </trkpt>
      <trkpt lat="49.32802" lon="2.31945">
        <ele>43.231532934512</ele>
        <time>2018-10-03T15:32:22.918Z</time>
      </trkpt>
      <trkpt lat="49.32606" lon="2.32385">
        <ele>40.088213463628</ele>
        <time>2018-10-03T15:33:04.982Z</time>
      </trkpt>
      <trkpt lat="49.32577" lon="2.32444">
        <ele>39.638449749147</ele>
        <time>2018-10-03T15:33:11.072Z</time>
      </trkpt>
      <trkpt lat="49.32558" lon="2.32491">
        <ele>39.570552845704</ele>
        <time>2018-10-03T15:33:15.927Z</time>
      </trkpt>
      <trkpt lat="49.32546" lon="2.3251">
        <ele>39.540410799668</ele>
        <time>2018-10-03T15:33:18.347Z</time>
      </trkpt>
      <trkpt lat="49.32541" lon="2.32508">
        <ele>39.53177497624</ele>
        <time>2018-10-03T15:33:19.051Z</time>
      </trkpt>
      <trkpt lat="49.32536" lon="2.32507">
        <ele>39.522915312457</ele>
        <time>2018-10-03T15:33:19.785Z</time>
      </trkpt>
      <trkpt lat="49.32531" lon="2.3251">
        <ele>39.514869114361</ele>
        <time>2018-10-03T15:33:20.473Z</time>
      </trkpt>
      <trkpt lat="49.32527" lon="2.32514">
        <ele>39.506814838297</ele>
        <time>2018-10-03T15:33:21.157Z</time>
      </trkpt>
      <trkpt lat="49.32524" lon="2.3252">
        <ele>39.498593055994</ele>
        <time>2018-10-03T15:33:21.836Z</time>
      </trkpt>
      <trkpt lat="49.32523" lon="2.32525">
        <ele>39.491599760086</ele>
        <time>2018-10-03T15:33:22.428Z</time>
      </trkpt>
      <trkpt lat="49.32523" lon="2.32538">
        <ele>39.477609007489</ele>
        <time>2018-10-03T15:33:23.597Z</time>
      </trkpt>
      <trkpt lat="49.32524" lon="2.32544">
        <ele>39.470513324008</ele>
        <time>2018-10-03T15:33:24.197Z</time>
      </trkpt>
      <trkpt lat="49.32509" lon="2.32588">
        <ele>39.415188228707</ele>
        <time>2018-10-03T15:33:29.075Z</time>
      </trkpt>
      <trkpt lat="49.32487" lon="2.32641">
        <ele>39.345671127747</ele>
        <time>2018-10-03T15:33:35.321Z</time>
      </trkpt>
      <trkpt lat="49.32454" lon="2.32688">
        <ele>39.387405445251</ele>
        <time>2018-10-03T15:33:42.418Z</time>
      </trkpt>
      <trkpt lat="49.32396" lon="2.32749">
        <ele>39.518486648395</ele>
        <time>2018-10-03T15:33:53.425Z</time>
      </trkpt>
      <trkpt lat="49.32317" lon="2.32811">
        <ele>39.682654412877</ele>
        <time>2018-10-03T15:34:07.149Z</time>
      </trkpt>
      <trkpt lat="49.32076" lon="2.32917">
        <ele>40.333507952573</ele>
        <time>2018-10-03T15:34:45.917Z</time>
      </trkpt>
      <trkpt lat="49.32071" lon="2.3292">
        <ele>40.355710488074</ele>
        <time>2018-10-03T15:34:46.806Z</time>
      </trkpt>
      <trkpt lat="49.32062" lon="2.32924">
        <ele>40.3984334554</ele>
        <time>2018-10-03T15:34:48.519Z</time>
      </trkpt>
      <trkpt lat="49.32058" lon="2.32926">
        <ele>40.418636142096</ele>
        <time>2018-10-03T15:34:49.287Z</time>
      </trkpt>
      <trkpt lat="49.32046" lon="2.32933">
        <ele>40.474603339833</ele>
        <time>2018-10-03T15:34:51.512Z</time>
      </trkpt>
      <trkpt lat="49.31998" lon="2.3296">
        <ele>40.700644412971</ele>
        <time>2018-10-03T15:35:00.826Z</time>
      </trkpt>
      <trkpt lat="49.31957" lon="2.32986">
        <ele>40.948942903126</ele>
        <time>2018-10-03T15:35:08.602Z</time>
      </trkpt>
      <trkpt lat="49.3193" lon="2.33006">
        <ele>41.140537222899</ele>
        <time>2018-10-03T15:35:13.656Z</time>
      </trkpt>
      <trkpt lat="49.31907" lon="2.33027">
        <ele>41.30790478147</ele>
        <time>2018-10-03T15:35:17.992Z</time>
      </trkpt>
      <trkpt lat="49.31853" lon="2.33083">
        <ele>41.713573811013</ele>
        <time>2018-10-03T15:35:29.401Z</time>
      </trkpt>
      <trkpt lat="49.31816" lon="2.3312">
        <ele>42.035187483522</ele>
        <time>2018-10-03T15:35:37.365Z</time>
      </trkpt>
      <trkpt lat="49.31771" lon="2.33171">
        <ele>42.544995320698</ele>
        <time>2018-10-03T15:35:47.314Z</time>
      </trkpt>
      <trkpt lat="49.31745" lon="2.3324">
        <ele>43.01365797263</ele>
        <time>2018-10-03T15:35:56.635Z</time>
      </trkpt>
      <trkpt lat="49.3168" lon="2.33403">
        <ele>43.983870018963</ele>
        <time>2018-10-03T15:36:20.921Z</time>
      </trkpt>
      <trkpt lat="49.31628" lon="2.33539">
        <ele>44.669072866683</ele>
        <time>2018-10-03T15:36:38.400Z</time>
      </trkpt>
      <trkpt lat="49.31619" lon="2.33562">
        <ele>44.717777409496</ele>
        <time>2018-10-03T15:36:41.017Z</time>
      </trkpt>
      <trkpt lat="49.31545" lon="2.33747">
        <ele>44.692863381968</ele>
        <time>2018-10-03T15:37:01.288Z</time>
      </trkpt>
      <trkpt lat="49.3152" lon="2.33808">
        <ele>44.794861634525</ele>
        <time>2018-10-03T15:37:08.359Z</time>
      </trkpt>
      <trkpt lat="49.31498" lon="2.33859">
        <ele>45.020782828118</ele>
        <time>2018-10-03T15:37:14.540Z</time>
      </trkpt>
      <trkpt lat="49.31496" lon="2.33863">
        <ele>45.038520286971</ele>
        <time>2018-10-03T15:37:14.961Z</time>
      </trkpt>
      <trkpt lat="49.31488" lon="2.33884">
        <ele>45.130012703692</ele>
        <time>2018-10-03T15:37:17.511Z</time>
      </trkpt>
      <trkpt lat="49.31458" lon="2.33951">
        <ele>45.431872298174</ele>
        <time>2018-10-03T15:37:26.455Z</time>
      </trkpt>
      <trkpt lat="49.31439" lon="2.34012">
        <ele>45.682335059438</ele>
        <time>2018-10-03T15:37:34.523Z</time>
      </trkpt>
      <trkpt lat="49.31404" lon="2.34186">
        <ele>47.413794604039</ele>
        <time>2018-10-03T15:38:00.998Z</time>
      </trkpt>
      <trkpt lat="49.314" lon="2.34207">
        <ele>47.635063272996</ele>
        <time>2018-10-03T15:38:04.130Z</time>
      </trkpt>
      <trkpt lat="49.31388" lon="2.34267">
        <ele>48.249843240642</ele>
        <time>2018-10-03T15:38:12.238Z</time>
      </trkpt>
      <trkpt lat="49.31386" lon="2.34275">
        <ele>48.340017253129</ele>
        <time>2018-10-03T15:38:13.662Z</time>
      </trkpt>
      <trkpt lat="49.31382" lon="2.34291">
        <ele>48.443124024489</ele>
        <time>2018-10-03T15:38:15.531Z</time>
      </trkpt>
      <trkpt lat="49.31377" lon="2.34308">
        <ele>48.490683290446</ele>
        <time>2018-10-03T15:38:17.687Z</time>
      </trkpt>
      <trkpt lat="49.31371" lon="2.34333">
        <ele>48.560619834171</ele>
        <time>2018-10-03T15:38:21.030Z</time>
      </trkpt>
      <trkpt lat="49.31371" lon="2.34335">
        <ele>48.564691233662</ele>
        <time>2018-10-03T15:38:21.199Z</time>
      </trkpt>
      <trkpt lat="49.31369" lon="2.34342">
        <ele>48.586199459684</ele>
        <time>2018-10-03T15:38:22.078Z</time>
      </trkpt>
      <trkpt lat="49.31356" lon="2.34387">
        <ele>48.713284924493</ele>
        <time>2018-10-03T15:38:27.751Z</time>
      </trkpt>
      <trkpt lat="49.3135" lon="2.34406">
        <ele>48.76827627136</ele>
        <time>2018-10-03T15:38:29.985Z</time>
      </trkpt>
      <trkpt lat="49.31337" lon="2.34425">
        <ele>48.836926358443</ele>
        <time>2018-10-03T15:38:33.043Z</time>
      </trkpt>
      <trkpt lat="49.31327" lon="2.34438">
        <ele>48.88927060873</ele>
        <time>2018-10-03T15:38:34.872Z</time>
      </trkpt>
      <trkpt lat="49.31293" lon="2.34482">
        <ele>49.066502031526</ele>
        <time>2018-10-03T15:38:41.476Z</time>
      </trkpt>
      <trkpt lat="49.31222" lon="2.34563">
        <ele>49.263425619147</ele>
        <time>2018-10-03T15:38:53.876Z</time>
      </trkpt>
      <trkpt lat="49.31203" lon="2.34579">
        <ele>49.30270238633</ele>
        <time>2018-10-03T15:38:57.163Z</time>
      </trkpt>
      <trkpt lat="49.31181" lon="2.34599">
        <ele>49.347018228774</ele>
        <time>2018-10-03T15:39:01.378Z</time>
      </trkpt>
      <trkpt lat="49.31111" lon="2.34653">
        <ele>49.835005803272</ele>
        <time>2018-10-03T15:39:14.590Z</time>
      </trkpt>
      <trkpt lat="49.31077" lon="2.3468">
        <ele>50.698919565686</ele>
        <time>2018-10-03T15:39:20.863Z</time>
      </trkpt>
      <trkpt lat="49.31068" lon="2.34688">
        <ele>50.932697892463</ele>
        <time>2018-10-03T15:39:22.891Z</time>
      </trkpt>
      <trkpt lat="49.31052" lon="2.347">
        <ele>51.345847685733</ele>
        <time>2018-10-03T15:39:27.155Z</time>
      </trkpt>
      <trkpt lat="49.31047" lon="2.34707">
        <ele>51.493744679854</ele>
        <time>2018-10-03T15:39:28.950Z</time>
      </trkpt>
      <trkpt lat="49.31033" lon="2.34727">
        <ele>51.929110648142</ele>
        <time>2018-10-03T15:39:33.912Z</time>
      </trkpt>
      <trkpt lat="49.3101" lon="2.34766">
        <ele>52.701028712145</ele>
        <time>2018-10-03T15:39:43.238Z</time>
      </trkpt>
      <trkpt lat="49.31007" lon="2.34773">
        <ele>52.826015013337</ele>
        <time>2018-10-03T15:39:44.679Z</time>
      </trkpt>
      <trkpt lat="49.31002" lon="2.34786">
        <ele>53.04264394852</ele>
        <time>2018-10-03T15:39:47.444Z</time>
      </trkpt>
      <trkpt lat="49.30996" lon="2.34798">
        <ele>53.280628163459</ele>
        <time>2018-10-03T15:39:50.648Z</time>
      </trkpt>
      <trkpt lat="49.30983" lon="2.34808">
        <ele>53.709911868031</ele>
        <time>2018-10-03T15:39:54.866Z</time>
      </trkpt>
      <trkpt lat="49.30975" lon="2.34805">
        <ele>54.133362854286</ele>
        <time>2018-10-03T15:39:57.176Z</time>
      </trkpt>
      <trkpt lat="49.30983" lon="2.34847">
        <ele>55.627142128906</ele>
        <time>2018-10-03T15:40:06.182Z</time>
      </trkpt>
      <trkpt lat="49.30988" lon="2.34886">
        <ele>57.039756566098</ele>
        <time>2018-10-03T15:40:15.500Z</time>
      </trkpt>
      <trkpt lat="49.30997" lon="2.35007">
        <ele>61.26623382639</ele>
        <time>2018-10-03T15:40:45.272Z</time>
      </trkpt>
      <trkpt lat="49.31005" lon="2.35065">
        <ele>63.348825946919</ele>
        <time>2018-10-03T15:41:01.802Z</time>
      </trkpt>
      <trkpt lat="49.31017" lon="2.35112">
        <ele>65.094910385326</ele>
        <time>2018-10-03T15:41:15.914Z</time>
      </trkpt>
      <trkpt lat="49.31074" lon="2.35281">
        <ele>71.62772705737</ele>
        <time>2018-10-03T15:41:59.587Z</time>
      </trkpt>
      <trkpt lat="49.31096" lon="2.35394">
        <ele>74.578394554439</ele>
        <time>2018-10-03T15:42:23.291Z</time>
      </trkpt>
      <trkpt lat="49.31124" lon="2.35508">
        <ele>77.204782154385</ele>
        <time>2018-10-03T15:42:44.797Z</time>
      </trkpt>
      <trkpt lat="49.31145" lon="2.3557">
        <ele>78.700625428561</ele>
        <time>2018-10-03T15:42:56.317Z</time>
      </trkpt>
      <trkpt lat="49.31175" lon="2.35626">
        <ele>79.985869558279</ele>
        <time>2018-10-03T15:43:07.884Z</time>
      </trkpt>
      <trkpt lat="49.31329" lon="2.35833">
        <ele>86.460002465723</ele>
        <time>2018-10-03T15:44:01.069Z</time>
      </trkpt>
      <trkpt lat="49.31387" lon="2.3592">
        <ele>89.65648974834</ele>
        <time>2018-10-03T15:44:28.523Z</time>
      </trkpt>
      <trkpt lat="49.31419" lon="2.35982">
        <ele>91.767478282356</ele>
        <time>2018-10-03T15:44:46.108Z</time>
      </trkpt>
      <trkpt lat="49.31451" lon="2.36046">
        <ele>93.994170074299</ele>
        <time>2018-10-03T15:45:04.315Z</time>
      </trkpt>
      <trkpt lat="49.31485" lon="2.36136">
        <ele>96.897109642374</ele>
        <time>2018-10-03T15:45:26.286Z</time>
      </trkpt>
      <trkpt lat="49.31535" lon="2.36304">
        <ele>100.18385983402</ele>
        <time>2018-10-03T15:45:58.139Z</time>
      </trkpt>
      <trkpt lat="49.31552" lon="2.36384">
        <ele>101.38367443532</ele>
        <time>2018-10-03T15:46:09.826Z</time>
      </trkpt>
      <trkpt lat="49.31563" lon="2.36459">
        <ele>102.28671988166</ele>
        <time>2018-10-03T15:46:19.736Z</time>
      </trkpt>
      <trkpt lat="49.31584" lon="2.36615">
        <ele>103.17783404747</ele>
        <time>2018-10-03T15:46:38.333Z</time>
      </trkpt>
      <trkpt lat="49.31613" lon="2.36838">
        <ele>104.49983623524</ele>
        <time>2018-10-03T15:47:05.079Z</time>
      </trkpt>
      <trkpt lat="49.31636" lon="2.37024">
        <ele>105.63174103701</ele>
        <time>2018-10-03T15:47:28.670Z</time>
      </trkpt>
      <trkpt lat="49.31784" lon="2.38112">
        <ele>111.82393132191</ele>
        <time>2018-10-03T15:49:41.639Z</time>
      </trkpt>
      <trkpt lat="49.31808" lon="2.38285">
        <ele>112.33760053477</ele>
        <time>2018-10-03T15:50:01.223Z</time>
      </trkpt>
      <trkpt lat="49.31933" lon="2.39232">
        <ele>111.27611343807</ele>
        <time>2018-10-03T15:51:30.481Z</time>
      </trkpt>
      <trkpt lat="49.31994" lon="2.39693">
        <ele>109.95972585737</ele>
        <time>2018-10-03T15:52:11.303Z</time>
      </trkpt>
      <trkpt lat="49.31989" lon="2.39697">
        <ele>109.95068102247</ele>
        <time>2018-10-03T15:52:12.111Z</time>
      </trkpt>
      <trkpt lat="49.3198" lon="2.39714">
        <ele>109.93015536274</ele>
        <time>2018-10-03T15:52:13.989Z</time>
      </trkpt>
      <trkpt lat="49.3198" lon="2.39719">
        <ele>109.92475028392</ele>
        <time>2018-10-03T15:52:14.494Z</time>
      </trkpt>
      <trkpt lat="49.3198" lon="2.39727">
        <ele>109.91708697665</ele>
        <time>2018-10-03T15:52:15.255Z</time>
      </trkpt>
      <trkpt lat="49.31987" lon="2.39746">
        <ele>109.89536471642</ele>
        <time>2018-10-03T15:52:17.225Z</time>
      </trkpt>
      <trkpt lat="49.31998" lon="2.39752">
        <ele>109.87824038713</ele>
        <time>2018-10-03T15:52:18.799Z</time>
      </trkpt>
      <trkpt lat="49.32004" lon="2.39751">
        <ele>109.86961039843</ele>
        <time>2018-10-03T15:52:19.641Z</time>
      </trkpt>
      <trkpt lat="49.32058" lon="2.40159">
        <ele>109.88462035265</ele>
        <time>2018-10-03T15:52:59.975Z</time>
      </trkpt>
      <trkpt lat="49.32084" lon="2.40356">
        <ele>110.50186054252</ele>
        <time>2018-10-03T15:53:22.369Z</time>
      </trkpt>
      <trkpt lat="49.32091" lon="2.40403">
        <ele>110.67081144215</ele>
        <time>2018-10-03T15:53:27.910Z</time>
      </trkpt>
      <trkpt lat="49.3212" lon="2.40585">
        <ele>110.8399901557</ele>
        <time>2018-10-03T15:53:48.422Z</time>
      </trkpt>
      <trkpt lat="49.32146" lon="2.40682">
        <ele>110.80843262425</ele>
        <time>2018-10-03T15:53:58.080Z</time>
      </trkpt>
      <trkpt lat="49.32157" lon="2.40718">
        <ele>110.79676495028</ele>
        <time>2018-10-03T15:54:01.332Z</time>
      </trkpt>
      <trkpt lat="49.32158" lon="2.40744">
        <ele>110.55492772395</ele>
        <time>2018-10-03T15:54:03.500Z</time>
      </trkpt>
      <trkpt lat="49.32151" lon="2.40831">
        <ele>109.66248966775</ele>
        <time>2018-10-03T15:54:10.349Z</time>
      </trkpt>
      <trkpt lat="49.3215" lon="2.40845">
        <ele>109.50899325423</ele>
        <time>2018-10-03T15:54:11.485Z</time>
      </trkpt>
      <trkpt lat="49.32155" lon="2.40886">
        <ele>109.08655817437</ele>
        <time>2018-10-03T15:54:14.573Z</time>
      </trkpt>
      <trkpt lat="49.32182" lon="2.41078">
        <ele>106.51154267089</ele>
        <time>2018-10-03T15:54:28.379Z</time>
      </trkpt>
      <trkpt lat="49.32213" lon="2.41325">
        <ele>102.57607376841</ele>
        <time>2018-10-03T15:54:45.522Z</time>
      </trkpt>
      <trkpt lat="49.32216" lon="2.41395">
        <ele>101.70833819649</ele>
        <time>2018-10-03T15:54:50.447Z</time>
      </trkpt>
      <trkpt lat="49.32216" lon="2.41432">
        <ele>101.24561370047</ele>
        <time>2018-10-03T15:54:53.094Z</time>
      </trkpt>
      <trkpt lat="49.32218" lon="2.41481">
        <ele>100.63205339106</ele>
        <time>2018-10-03T15:54:56.766Z</time>
      </trkpt>
      <trkpt lat="49.32218" lon="2.41487">
        <ele>100.55620815141</ele>
        <time>2018-10-03T15:54:57.228Z</time>
      </trkpt>
      <trkpt lat="49.32218" lon="2.41547">
        <ele>99.904820083829</ele>
        <time>2018-10-03T15:55:01.905Z</time>
      </trkpt>
      <trkpt lat="49.32202" lon="2.41658">
        <ele>99.696914238455</ele>
        <time>2018-10-03T15:55:11.651Z</time>
      </trkpt>
      <trkpt lat="49.32111" lon="2.41852">
        <ele>99.315286419879</ele>
        <time>2018-10-03T15:55:35.915Z</time>
      </trkpt>
      <trkpt lat="49.32091" lon="2.41992">
        <ele>99.144210529687</ele>
        <time>2018-10-03T15:55:49.096Z</time>
      </trkpt>
      <trkpt lat="49.32086" lon="2.42012">
        <ele>99.118429921127</ele>
        <time>2018-10-03T15:55:51.062Z</time>
      </trkpt>
      <trkpt lat="49.3207" lon="2.42096">
        <ele>98.741722121172</ele>
        <time>2018-10-03T15:55:58.468Z</time>
      </trkpt>
      <trkpt lat="49.32062" lon="2.42216">
        <ele>98.073143199266</ele>
        <time>2018-10-03T15:56:08.268Z</time>
      </trkpt>
      <trkpt lat="49.32065" lon="2.42307">
        <ele>97.570515373818</ele>
        <time>2018-10-03T15:56:15.408Z</time>
      </trkpt>
      <trkpt lat="49.32089" lon="2.42467">
        <ele>95.46907474404</ele>
        <time>2018-10-03T15:56:28.486Z</time>
      </trkpt>
      <trkpt lat="49.3208" lon="2.42513">
        <ele>94.860165421512</ele>
        <time>2018-10-03T15:56:31.845Z</time>
      </trkpt>
      <trkpt lat="49.32076" lon="2.42522">
        <ele>94.716749048736</ele>
        <time>2018-10-03T15:56:32.588Z</time>
      </trkpt>
      <trkpt lat="49.32074" lon="2.42527">
        <ele>94.642095276561</ele>
        <time>2018-10-03T15:56:32.975Z</time>
      </trkpt>
      <trkpt lat="49.32074" lon="2.42543">
        <ele>94.442587221766</ele>
        <time>2018-10-03T15:56:34.011Z</time>
      </trkpt>
      <trkpt lat="49.3208" lon="2.42557">
        <ele>94.232943079787</ele>
        <time>2018-10-03T15:56:35.108Z</time>
      </trkpt>
      <trkpt lat="49.32083" lon="2.42562">
        <ele>94.134210507399</ele>
        <time>2018-10-03T15:56:35.630Z</time>
      </trkpt>
      <trkpt lat="49.32073" lon="2.42593">
        <ele>93.124854160942</ele>
        <time>2018-10-03T15:56:37.870Z</time>
      </trkpt>
      <trkpt lat="49.32071" lon="2.42597">
        <ele>92.96536212015</ele>
        <time>2018-10-03T15:56:38.178Z</time>
      </trkpt>
      <trkpt lat="49.32071" lon="2.42599">
        <ele>92.892394580853</ele>
        <time>2018-10-03T15:56:38.313Z</time>
      </trkpt>
      <trkpt lat="49.32016" lon="2.42739">
        <ele>87.263152528502</ele>
        <time>2018-10-03T15:56:48.303Z</time>
      </trkpt>
      <trkpt lat="49.32001" lon="2.42776">
        <ele>85.739141935625</ele>
        <time>2018-10-03T15:56:50.911Z</time>
      </trkpt>
      <trkpt lat="49.31919" lon="2.42987">
        <ele>75.647335650121</ele>
        <time>2018-10-03T15:57:05.381Z</time>
      </trkpt>
      <trkpt lat="49.31882" lon="2.43084">
        <ele>71.295582542372</ele>
        <time>2018-10-03T15:57:12.129Z</time>
      </trkpt>
      <trkpt lat="49.31857" lon="2.43166">
        <ele>68.183009137534</ele>
        <time>2018-10-03T15:57:17.660Z</time>
      </trkpt>
      <trkpt lat="49.31841" lon="2.43239">
        <ele>65.562808831719</ele>
        <time>2018-10-03T15:57:22.370Z</time>
      </trkpt>
      <trkpt lat="49.3183" lon="2.43349">
        <ele>62.05099204847</ele>
        <time>2018-10-03T15:57:29.292Z</time>
      </trkpt>
      <trkpt lat="49.31813" lon="2.43775">
        <ele>50.997530214972</ele>
        <time>2018-10-03T15:57:56.497Z</time>
      </trkpt>
      <trkpt lat="49.31815" lon="2.43885">
        <ele>48.716475830872</ele>
        <time>2018-10-03T15:58:04.030Z</time>
      </trkpt>
      <trkpt lat="49.31813" lon="2.43931">
        <ele>48.058220597257</ele>
        <time>2018-10-03T15:58:07.258Z</time>
      </trkpt>
      <trkpt lat="49.31802" lon="2.43942">
        <ele>47.780214512379</ele>
        <time>2018-10-03T15:58:08.615Z</time>
      </trkpt>
      <trkpt lat="49.31799" lon="2.43956">
        <ele>47.574578710106</ele>
        <time>2018-10-03T15:58:09.642Z</time>
      </trkpt>
      <trkpt lat="49.31797" lon="2.43968">
        <ele>47.391119909176</ele>
        <time>2018-10-03T15:58:10.557Z</time>
      </trkpt>
      <trkpt lat="49.31797" lon="2.43987">
        <ele>47.121143023444</ele>
        <time>2018-10-03T15:58:11.883Z</time>
      </trkpt>
      <trkpt lat="49.31795" lon="2.44007">
        <ele>46.84492239439</ele>
        <time>2018-10-03T15:58:13.283Z</time>
      </trkpt>
      <trkpt lat="49.31786" lon="2.44026">
        <ele>46.516812204535</ele>
        <time>2018-10-03T15:58:14.946Z</time>
      </trkpt>
      <trkpt lat="49.31762" lon="2.44069">
        <ele>45.710647464734</ele>
        <time>2018-10-03T15:58:19.106Z</time>
      </trkpt>
      <trkpt lat="49.31724" lon="2.44136">
        <ele>44.884408175558</ele>
        <time>2018-10-03T15:58:25.780Z</time>
      </trkpt>
      <trkpt lat="49.31689" lon="2.44172">
        <ele>44.444023273839</ele>
        <time>2018-10-03T15:58:30.531Z</time>
      </trkpt>
      <trkpt lat="49.3149" lon="2.44297">
        <ele>42.888290641607</ele>
        <time>2018-10-03T15:58:58.693Z</time>
      </trkpt>
      <trkpt lat="49.31471" lon="2.44299">
        <ele>42.803782470615</ele>
        <time>2018-10-03T15:59:01.751Z</time>
      </trkpt>
      <trkpt lat="49.31431" lon="2.44307">
        <ele>42.627686123264</ele>
        <time>2018-10-03T15:59:07.279Z</time>
      </trkpt>
      <trkpt lat="49.31288" lon="2.4432">
        <ele>42.103599473942</ele>
        <time>2018-10-03T15:59:26.330Z</time>
      </trkpt>
      <trkpt lat="49.31171" lon="2.44331">
        <ele>42.135548986464</ele>
        <time>2018-10-03T15:59:43.164Z</time>
      </trkpt>
      <trkpt lat="49.31142" lon="2.44334">
        <ele>42.204839325562</ele>
        <time>2018-10-03T15:59:47.748Z</time>
      </trkpt>
      <trkpt lat="49.31066" lon="2.44343">
        <ele>42.3988029307</ele>
        <time>2018-10-03T16:00:00.723Z</time>
      </trkpt>
      <trkpt lat="49.31061" lon="2.44343">
        <ele>42.447284492616</ele>
        <time>2018-10-03T16:00:01.546Z</time>
      </trkpt>
      <trkpt lat="49.31026" lon="2.44346">
        <ele>42.832341498474</ele>
        <time>2018-10-03T16:00:08.155Z</time>
      </trkpt>
      <trkpt lat="49.31023" lon="2.44335">
        <ele>42.915600478169</ele>
        <time>2018-10-03T16:00:09.635Z</time>
      </trkpt>
      <trkpt lat="49.31018" lon="2.44327">
        <ele>42.998622149224</ele>
        <time>2018-10-03T16:00:11.140Z</time>
      </trkpt>
      <trkpt lat="49.3101" lon="2.44324">
        <ele>43.082610945287</ele>
        <time>2018-10-03T16:00:12.658Z</time>
      </trkpt>
      <trkpt lat="49.31004" lon="2.44326">
        <ele>43.146340562929</ele>
        <time>2018-10-03T16:00:13.817Z</time>
      </trkpt>
      <trkpt lat="49.30996" lon="2.44339">
        <ele>43.273812143205</ele>
        <time>2018-10-03T16:00:16.028Z</time>
      </trkpt>
      <trkpt lat="49.30995" lon="2.44348">
        <ele>43.337962025932</ele>
        <time>2018-10-03T16:00:17.128Z</time>
      </trkpt>
      <trkpt lat="49.3098" lon="2.44353">
        <ele>43.500807786578</ele>
        <time>2018-10-03T16:00:19.983Z</time>
      </trkpt>
      <trkpt lat="49.3074" lon="2.44378">
        <ele>46.638261377839</ele>
        <time>2018-10-03T16:01:08.253Z</time>
      </trkpt>
      <trkpt lat="49.30722" lon="2.4438">
        <ele>46.907194619722</ele>
        <time>2018-10-03T16:01:12.444Z</time>
      </trkpt>
      <trkpt lat="49.30699" lon="2.44383">
        <ele>47.298933966359</ele>
        <time>2018-10-03T16:01:17.589Z</time>
      </trkpt>
      <trkpt lat="49.30482" lon="2.44403">
        <ele>50.315233761236</ele>
        <time>2018-10-03T16:02:04.665Z</time>
      </trkpt>
      <trkpt lat="49.30471" lon="2.44404">
        <ele>50.382532359623</ele>
        <time>2018-10-03T16:02:06.835Z</time>
      </trkpt>
      <trkpt lat="49.30452" lon="2.44407">
        <ele>50.507262516891</ele>
        <time>2018-10-03T16:02:09.887Z</time>
      </trkpt>
      <trkpt lat="49.30401" lon="2.44411">
        <ele>50.83708998975</ele>
        <time>2018-10-03T16:02:18.418Z</time>
      </trkpt>
      <trkpt lat="49.30379" lon="2.44412">
        <ele>50.983097637483</ele>
        <time>2018-10-03T16:02:21.600Z</time>
      </trkpt>
      <trkpt lat="49.30371" lon="2.44412">
        <ele>51.034134150009</ele>
        <time>2018-10-03T16:02:22.849Z</time>
      </trkpt>
      <trkpt lat="49.30331" lon="2.44407">
        <ele>50.483730129219</ele>
        <time>2018-10-03T16:02:28.011Z</time>
      </trkpt>
      <trkpt lat="49.30209" lon="2.44384">
        <ele>48.39478561646</ele>
        <time>2018-10-03T16:02:41.487Z</time>
      </trkpt>
      <trkpt lat="49.30196" lon="2.44381">
        <ele>48.168950225245</ele>
        <time>2018-10-03T16:02:42.860Z</time>
      </trkpt>
      <trkpt lat="49.30183" lon="2.44379">
        <ele>47.952130200804</ele>
        <time>2018-10-03T16:02:44.213Z</time>
      </trkpt>
      <trkpt lat="49.30167" lon="2.44377">
        <ele>47.714983206138</ele>
        <time>2018-10-03T16:02:45.899Z</time>
      </trkpt>
      <trkpt lat="49.30113" lon="2.4437">
        <ele>46.867612101348</ele>
        <time>2018-10-03T16:02:51.679Z</time>
      </trkpt>
      <trkpt lat="49.30054" lon="2.44358">
        <ele>45.93438318095</ele>
        <time>2018-10-03T16:02:58.270Z</time>
      </trkpt>
      <trkpt lat="49.29899" lon="2.44327">
        <ele>46.053981501431</ele>
        <time>2018-10-03T16:03:21.419Z</time>
      </trkpt>
      <trkpt lat="49.29891" lon="2.44326">
        <ele>46.122620377539</ele>
        <time>2018-10-03T16:03:23.398Z</time>
      </trkpt>
      <trkpt lat="49.29738" lon="2.44302">
        <ele>47.695709812497</ele>
        <time>2018-10-03T16:03:58.823Z</time>
      </trkpt>
      <trkpt lat="49.29713" lon="2.44297">
        <ele>47.992162085636</ele>
        <time>2018-10-03T16:04:03.603Z</time>
      </trkpt>
      <trkpt lat="49.29702" lon="2.44295">
        <ele>48.123667613423</ele>
        <time>2018-10-03T16:04:05.690Z</time>
      </trkpt>
      <trkpt lat="49.29685" lon="2.44291">
        <ele>48.321456443692</ele>
        <time>2018-10-03T16:04:08.431Z</time>
      </trkpt>
      <trkpt lat="49.29651" lon="2.44285">
        <ele>48.726209864163</ele>
        <time>2018-10-03T16:04:13.745Z</time>
      </trkpt>
      <trkpt lat="49.29632" lon="2.44284">
        <ele>48.468017383947</ele>
        <time>2018-10-03T16:04:16.679Z</time>
      </trkpt>
      <trkpt lat="49.29579" lon="2.443">
        <ele>47.712087477015</ele>
        <time>2018-10-03T16:04:23.250Z</time>
      </trkpt>
      <trkpt lat="49.29462" lon="2.44342">
        <ele>46.042093138742</ele>
        <time>2018-10-03T16:04:36.338Z</time>
      </trkpt>
      <trkpt lat="49.29419" lon="2.44356">
        <ele>45.494359375716</ele>
        <time>2018-10-03T16:04:41.187Z</time>
      </trkpt>
      <trkpt lat="49.29345" lon="2.44381">
        <ele>44.556660790118</ele>
        <time>2018-10-03T16:04:50.201Z</time>
      </trkpt>
      <trkpt lat="49.29333" lon="2.44386">
        <ele>44.403972503884</ele>
        <time>2018-10-03T16:04:51.794Z</time>
      </trkpt>
      <trkpt lat="49.29298" lon="2.44398">
        <ele>43.97784900648</ele>
        <time>2018-10-03T16:04:56.445Z</time>
      </trkpt>
      <trkpt lat="49.2926" lon="2.44412">
        <ele>44.099737852402</ele>
        <time>2018-10-03T16:05:02.194Z</time>
      </trkpt>
      <trkpt lat="49.29229" lon="2.44422">
        <ele>44.197301994725</ele>
        <time>2018-10-03T16:05:07.232Z</time>
      </trkpt>
      <trkpt lat="49.29178" lon="2.4444">
        <ele>44.356217692117</ele>
        <time>2018-10-03T16:05:15.971Z</time>
      </trkpt>
      <trkpt lat="49.2916" lon="2.44445">
        <ele>44.41327667809</ele>
        <time>2018-10-03T16:05:19.142Z</time>
      </trkpt>
      <trkpt lat="49.29092" lon="2.44473">
        <ele>44.724530549769</ele>
        <time>2018-10-03T16:05:31.989Z</time>
      </trkpt>
      <trkpt lat="49.29055" lon="2.44499">
        <ele>44.968840959515</ele>
        <time>2018-10-03T16:05:39.192Z</time>
      </trkpt>
      <trkpt lat="49.29005" lon="2.44547">
        <ele>45.320394862892</ele>
        <time>2018-10-03T16:05:48.603Z</time>
      </trkpt>
      <trkpt lat="49.29" lon="2.44555">
        <ele>45.366791961029</ele>
        <time>2018-10-03T16:05:49.978Z</time>
      </trkpt>
      <trkpt lat="49.2899" lon="2.4457">
        <ele>45.448555649622</ele>
        <time>2018-10-03T16:05:52.128Z</time>
      </trkpt>
      <trkpt lat="49.28974" lon="2.44602">
        <ele>45.61400802606</ele>
        <time>2018-10-03T16:05:56.651Z</time>
      </trkpt>
      <trkpt lat="49.28969" lon="2.44612">
        <ele>45.703742972009</ele>
        <time>2018-10-03T16:05:57.961Z</time>
      </trkpt>
      <trkpt lat="49.2896" lon="2.44628">
        <ele>45.857734923746</ele>
        <time>2018-10-03T16:06:00.281Z</time>
      </trkpt>
      <trkpt lat="49.28952" lon="2.44648">
        <ele>46.033000080262</ele>
        <time>2018-10-03T16:06:03.068Z</time>
      </trkpt>
      <trkpt lat="49.28937" lon="2.4468">
        <ele>46.325883730814</ele>
        <time>2018-10-03T16:06:08.040Z</time>
      </trkpt>
      <trkpt lat="49.28926" lon="2.44702">
        <ele>46.529254482088</ele>
        <time>2018-10-03T16:06:11.721Z</time>
      </trkpt>
      <trkpt lat="49.28904" lon="2.44749">
        <ele>46.960133984361</ele>
        <time>2018-10-03T16:06:19.854Z</time>
      </trkpt>
      <trkpt lat="49.28867" lon="2.44824">
        <ele>47.652382576064</ele>
        <time>2018-10-03T16:06:31.883Z</time>
      </trkpt>
      <trkpt lat="49.28855" lon="2.44849">
        <ele>47.746078908222</ele>
        <time>2018-10-03T16:06:35.829Z</time>
      </trkpt>
      <trkpt lat="49.28827" lon="2.44908">
        <ele>47.971949085555</ele>
        <time>2018-10-03T16:06:45.448Z</time>
      </trkpt>
      <trkpt lat="49.28812" lon="2.44942">
        <ele>48.098503201736</ele>
        <time>2018-10-03T16:06:50.715Z</time>
      </trkpt>
      <trkpt lat="49.28733" lon="2.45103">
        <ele>47.700439310005</ele>
        <time>2018-10-03T16:07:09.037Z</time>
      </trkpt>
      <trkpt lat="49.28672" lon="2.45198">
        <ele>46.235163761957</ele>
        <time>2018-10-03T16:07:18.258Z</time>
      </trkpt>
      <trkpt lat="49.28607" lon="2.45289">
        <ele>44.934000391708</ele>
        <time>2018-10-03T16:07:27.826Z</time>
      </trkpt>
      <trkpt lat="49.28558" lon="2.45353">
        <ele>44.131570085165</ele>
        <time>2018-10-03T16:07:35.213Z</time>
      </trkpt>
      <trkpt lat="49.28552" lon="2.4536">
        <ele>44.036747973969</ele>
        <time>2018-10-03T16:07:36.121Z</time>
      </trkpt>
      <trkpt lat="49.2846" lon="2.45468">
        <ele>43.199834312801</ele>
        <time>2018-10-03T16:07:52.007Z</time>
      </trkpt>
      <trkpt lat="49.28334" lon="2.45615">
        <ele>43.273473494981</ele>
        <time>2018-10-03T16:08:16.155Z</time>
      </trkpt>
      <trkpt lat="49.28332" lon="2.45618">
        <ele>43.28520375782</ele>
        <time>2018-10-03T16:08:16.630Z</time>
      </trkpt>
      <trkpt lat="49.28326" lon="2.45625">
        <ele>43.310790377069</ele>
        <time>2018-10-03T16:08:17.665Z</time>
      </trkpt>
      <trkpt lat="49.28248" lon="2.45716">
        <ele>43.659864194838</ele>
        <time>2018-10-03T16:08:33.615Z</time>
      </trkpt>
      <trkpt lat="49.28226" lon="2.45742">
        <ele>43.759220661801</ele>
        <time>2018-10-03T16:08:38.282Z</time>
      </trkpt>
      <trkpt lat="49.28198" lon="2.45773">
        <ele>43.926028226666</ele>
        <time>2018-10-03T16:08:44.252Z</time>
      </trkpt>
      <trkpt lat="49.28188" lon="2.45785">
        <ele>43.998494617767</ele>
        <time>2018-10-03T16:08:46.509Z</time>
      </trkpt>
      <trkpt lat="49.28181" lon="2.45794">
        <ele>44.04946998178</ele>
        <time>2018-10-03T16:08:48.183Z</time>
      </trkpt>
      <trkpt lat="49.28021" lon="2.45978">
        <ele>44.721542533395</ele>
        <time>2018-10-03T16:09:22.670Z</time>
      </trkpt>
      <trkpt lat="49.27984" lon="2.46018">
        <ele>44.627147047305</ele>
        <time>2018-10-03T16:09:29.254Z</time>
      </trkpt>
      <trkpt lat="49.27977" lon="2.46026">
        <ele>44.610194593247</ele>
        <time>2018-10-03T16:09:30.369Z</time>
      </trkpt>
      <trkpt lat="49.27953" lon="2.46051">
        <ele>44.549099737063</ele>
        <time>2018-10-03T16:09:34.281Z</time>
      </trkpt>
      <trkpt lat="49.2795" lon="2.46055">
        <ele>44.539795003712</ele>
        <time>2018-10-03T16:09:34.882Z</time>
      </trkpt>
      <trkpt lat="49.2794" lon="2.46065">
        <ele>44.514832293988</ele>
        <time>2018-10-03T16:09:36.392Z</time>
      </trkpt>
      <trkpt lat="49.27882" lon="2.46126">
        <ele>43.595688360069</ele>
        <time>2018-10-03T16:09:44.516Z</time>
      </trkpt>
      <trkpt lat="49.27873" lon="2.46129">
        <ele>43.438416715145</ele>
        <time>2018-10-03T16:09:45.633Z</time>
      </trkpt>
      <trkpt lat="49.27863" lon="2.4613">
        <ele>43.26298446379</ele>
        <time>2018-10-03T16:09:46.637Z</time>
      </trkpt>
      <trkpt lat="49.27833" lon="2.46145">
        <ele>42.719098881511</ele>
        <time>2018-10-03T16:09:50.202Z</time>
      </trkpt>
      <trkpt lat="49.27829" lon="2.46147">
        <ele>42.645910746738</ele>
        <time>2018-10-03T16:09:50.592Z</time>
      </trkpt>
      <trkpt lat="49.27826" lon="2.46147">
        <ele>42.599189966506</ele>
        <time>2018-10-03T16:09:50.901Z</time>
      </trkpt>
      <trkpt lat="49.27823" lon="2.46147">
        <ele>42.551994533309</ele>
        <time>2018-10-03T16:09:51.265Z</time>
      </trkpt>
      <trkpt lat="49.27821" lon="2.46149">
        <ele>42.504684917738</ele>
        <time>2018-10-03T16:09:51.598Z</time>
      </trkpt>
      <trkpt lat="49.27818" lon="2.46151">
        <ele>42.457957120619</ele>
        <time>2018-10-03T16:09:51.881Z</time>
      </trkpt>
      <trkpt lat="49.27812" lon="2.46164">
        <ele>42.272942782514</ele>
        <time>2018-10-03T16:09:53.197Z</time>
      </trkpt>
      <trkpt lat="49.27811" lon="2.46176">
        <ele>42.132616675244</ele>
        <time>2018-10-03T16:09:54.131Z</time>
      </trkpt>
      <trkpt lat="49.27812" lon="2.4618">
        <ele>42.085878269226</ele>
        <time>2018-10-03T16:09:54.399Z</time>
      </trkpt>
      <trkpt lat="49.27812" lon="2.46186">
        <ele>42.020398807737</ele>
        <time>2018-10-03T16:09:54.755Z</time>
      </trkpt>
      <trkpt lat="49.27802" lon="2.4621">
        <ele>41.699718355093</ele>
        <time>2018-10-03T16:09:56.967Z</time>
      </trkpt>
      <trkpt lat="49.27788" lon="2.4623">
        <ele>41.3684013115</ele>
        <time>2018-10-03T16:09:58.985Z</time>
      </trkpt>
      <trkpt lat="49.2777" lon="2.46251">
        <ele>40.986362564776</ele>
        <time>2018-10-03T16:10:01.675Z</time>
      </trkpt>
      <trkpt lat="49.27755" lon="2.46268">
        <ele>40.672212745162</ele>
        <time>2018-10-03T16:10:03.658Z</time>
      </trkpt>
      <trkpt lat="49.27749" lon="2.46275">
        <ele>40.548636099797</ele>
        <time>2018-10-03T16:10:04.487Z</time>
      </trkpt>
      <trkpt lat="49.27739" lon="2.46285">
        <ele>40.353027919768</ele>
        <time>2018-10-03T16:10:05.851Z</time>
      </trkpt>
      <trkpt lat="49.27642" lon="2.4639">
        <ele>38.365960303236</ele>
        <time>2018-10-03T16:10:19.332Z</time>
      </trkpt>
      <trkpt lat="49.27632" lon="2.464">
        <ele>38.207153080512</ele>
        <time>2018-10-03T16:10:20.682Z</time>
      </trkpt>
      <trkpt lat="49.2755" lon="2.46489">
        <ele>36.875979617197</ele>
        <time>2018-10-03T16:10:32.741Z</time>
      </trkpt>
      <trkpt lat="49.27546" lon="2.46493">
        <ele>36.810880621037</ele>
        <time>2018-10-03T16:10:33.268Z</time>
      </trkpt>
      <trkpt lat="49.2754" lon="2.465">
        <ele>36.713232093147</ele>
        <time>2018-10-03T16:10:34.127Z</time>
      </trkpt>
      <trkpt lat="49.27499" lon="2.46545">
        <ele>36.048616933289</ele>
        <time>2018-10-03T16:10:39.996Z</time>
      </trkpt>
      <trkpt lat="49.27496" lon="2.46548">
        <ele>35.999792516905</ele>
        <time>2018-10-03T16:10:40.400Z</time>
      </trkpt>
      <trkpt lat="49.27446" lon="2.46605">
        <ele>35.485592615293</ele>
        <time>2018-10-03T16:10:47.987Z</time>
      </trkpt>
      <trkpt lat="49.27431" lon="2.46621">
        <ele>35.342071645777</ele>
        <time>2018-10-03T16:10:50.202Z</time>
      </trkpt>
      <trkpt lat="49.2742" lon="2.46634">
        <ele>35.225464808488</ele>
        <time>2018-10-03T16:10:52.224Z</time>
      </trkpt>
      <trkpt lat="49.27388" lon="2.46674">
        <ele>34.897220330645</ele>
        <time>2018-10-03T16:11:00.078Z</time>
      </trkpt>
      <trkpt lat="49.27383" lon="2.46681">
        <ele>34.839105930295</ele>
        <time>2018-10-03T16:11:01.359Z</time>
      </trkpt>
      <trkpt lat="49.27374" lon="2.46694">
        <ele>34.738466900451</ele>
        <time>2018-10-03T16:11:03.545Z</time>
      </trkpt>
      <trkpt lat="49.27366" lon="2.46705">
        <ele>34.653410959137</ele>
        <time>2018-10-03T16:11:05.465Z</time>
      </trkpt>
      <trkpt lat="49.27358" lon="2.46716">
        <ele>34.567104358829</ele>
        <time>2018-10-03T16:11:06.914Z</time>
      </trkpt>
      <trkpt lat="49.27341" lon="2.46733">
        <ele>34.394608991082</ele>
        <time>2018-10-03T16:11:09.368Z</time>
      </trkpt>
      <trkpt lat="49.2734" lon="2.46734">
        <ele>34.385196468494</ele>
        <time>2018-10-03T16:11:09.713Z</time>
      </trkpt>
      <trkpt lat="49.27338" lon="2.46737">
        <ele>34.362649003933</ele>
        <time>2018-10-03T16:11:10.047Z</time>
      </trkpt>
      <trkpt lat="49.27335" lon="2.46742">
        <ele>34.327998371734</ele>
        <time>2018-10-03T16:11:10.497Z</time>
      </trkpt>
      <trkpt lat="49.27335" lon="2.46744">
        <ele>34.315127854292</ele>
        <time>2018-10-03T16:11:10.687Z</time>
      </trkpt>
      <trkpt lat="49.27333" lon="2.4675">
        <ele>34.277288477109</ele>
        <time>2018-10-03T16:11:11.329Z</time>
      </trkpt>
      <trkpt lat="49.2733" lon="2.46759">
        <ele>34.220370402314</ele>
        <time>2018-10-03T16:11:12.173Z</time>
      </trkpt>
      <trkpt lat="49.27322" lon="2.46784">
        <ele>34.068557847318</ele>
        <time>2018-10-03T16:11:14.379Z</time>
      </trkpt>
      <trkpt lat="49.27316" lon="2.46796">
        <ele>33.986481511244</ele>
        <time>2018-10-03T16:11:15.584Z</time>
      </trkpt>
      <trkpt lat="49.27311" lon="2.46807">
        <ele>33.913130925861</ele>
        <time>2018-10-03T16:11:16.811Z</time>
      </trkpt>
      <trkpt lat="49.27303" lon="2.46821">
        <ele>33.811441065593</ele>
        <time>2018-10-03T16:11:18.244Z</time>
      </trkpt>
      <trkpt lat="49.27289" lon="2.46837">
        <ele>33.664929285614</ele>
        <time>2018-10-03T16:11:20.681Z</time>
      </trkpt>
      <trkpt lat="49.2728" lon="2.46847">
        <ele>33.571954650499</ele>
        <time>2018-10-03T16:11:22.222Z</time>
      </trkpt>
      <trkpt lat="49.27269" lon="2.46856">
        <ele>33.470058846879</ele>
        <time>2018-10-03T16:11:23.777Z</time>
      </trkpt>
      <trkpt lat="49.27262" lon="2.46859">
        <ele>33.410557627217</ele>
        <time>2018-10-03T16:11:24.642Z</time>
      </trkpt>
      <trkpt lat="49.27251" lon="2.46861">
        <ele>33.318180986071</ele>
        <time>2018-10-03T16:11:26.110Z</time>
      </trkpt>
      <trkpt lat="49.27243" lon="2.4686">
        <ele>33.246536281789</ele>
        <time>2018-10-03T16:11:27.172Z</time>
      </trkpt>
      <trkpt lat="49.27241" lon="2.46859">
        <ele>33.234561230602</ele>
        <time>2018-10-03T16:11:27.313Z</time>
      </trkpt>
      <trkpt lat="49.27232" lon="2.4687">
        <ele>33.139110026079</ele>
        <time>2018-10-03T16:11:28.997Z</time>
      </trkpt>
      <trkpt lat="49.27232" lon="2.46872">
        <ele>33.127010671234</ele>
        <time>2018-10-03T16:11:29.137Z</time>
      </trkpt>
      <trkpt lat="49.2723" lon="2.46877">
        <ele>33.093350773914</ele>
        <time>2018-10-03T16:11:29.631Z</time>
      </trkpt>
      <trkpt lat="49.27221" lon="2.46894">
        <ele>32.952402727335</ele>
        <time>2018-10-03T16:11:31.439Z</time>
      </trkpt>
      <trkpt lat="49.27217" lon="2.46898">
        <ele>32.891806304486</ele>
        <time>2018-10-03T16:11:31.933Z</time>
      </trkpt>
      <trkpt lat="49.27169" lon="2.4694">
        <ele>32.166384378563</ele>
        <time>2018-10-03T16:11:38.102Z</time>
      </trkpt>
      <trkpt lat="49.27139" lon="2.46966">
        <ele>31.707378307063</ele>
        <time>2018-10-03T16:11:42.052Z</time>
      </trkpt>
      <trkpt lat="49.27132" lon="2.46972">
        <ele>31.603600131636</ele>
        <time>2018-10-03T16:11:42.926Z</time>
      </trkpt>
      <trkpt lat="49.27084" lon="2.4701">
        <ele>30.897073476562</ele>
        <time>2018-10-03T16:11:49.382Z</time>
      </trkpt>
      <trkpt lat="49.27072" lon="2.47019">
        <ele>30.722684987694</ele>
        <time>2018-10-03T16:11:50.948Z</time>
      </trkpt>
      <trkpt lat="49.27016" lon="2.47069">
        <ele>30.278361501593</ele>
        <time>2018-10-03T16:11:59.261Z</time>
      </trkpt>
      <trkpt lat="49.26988" lon="2.47098">
        <ele>30.071898489738</ele>
        <time>2018-10-03T16:12:03.487Z</time>
      </trkpt>
      <trkpt lat="49.26987" lon="2.47096">
        <ele>30.059537834458</ele>
        <time>2018-10-03T16:12:03.720Z</time>
      </trkpt>
      <trkpt lat="49.26981" lon="2.47095">
        <ele>30.02374135046</ele>
        <time>2018-10-03T16:12:04.423Z</time>
      </trkpt>
      <trkpt lat="49.26979" lon="2.47096">
        <ele>30.011073329806</ele>
        <time>2018-10-03T16:12:04.662Z</time>
      </trkpt>
      <trkpt lat="49.26977" lon="2.47098">
        <ele>29.997094528633</ele>
        <time>2018-10-03T16:12:04.994Z</time>
      </trkpt>
      <trkpt lat="49.26976" lon="2.47108">
        <ele>29.956700650139</ele>
        <time>2018-10-03T16:12:05.952Z</time>
      </trkpt>
      <trkpt lat="49.26977" lon="2.47111">
        <ele>29.942859056772</ele>
        <time>2018-10-03T16:12:06.314Z</time>
      </trkpt>
      <trkpt lat="49.26946" lon="2.47157">
        <ele>29.674086357918</ele>
        <time>2018-10-03T16:12:12.167Z</time>
      </trkpt>
      <trkpt lat="49.269" lon="2.47208">
        <ele>29.535412664197</ele>
        <time>2018-10-03T16:12:20.224Z</time>
      </trkpt>
      <trkpt lat="49.26892" lon="2.47216">
        <ele>29.534783911052</ele>
        <time>2018-10-03T16:12:21.739Z</time>
      </trkpt>
      <trkpt lat="49.26819" lon="2.47282">
        <ele>29.52904768457</ele>
        <time>2018-10-03T16:12:34.716Z</time>
      </trkpt>
      <trkpt lat="49.26779" lon="2.47319">
        <ele>29.525909519204</ele>
        <time>2018-10-03T16:12:41.691Z</time>
      </trkpt>
      <trkpt lat="49.26757" lon="2.47331">
        <ele>29.526583303173</ele>
        <time>2018-10-03T16:12:45.205Z</time>
      </trkpt>
      <trkpt lat="49.26716" lon="2.47337">
        <ele>29.528547886364</ele>
        <time>2018-10-03T16:12:51.140Z</time>
      </trkpt>
      <trkpt lat="49.26704" lon="2.47339">
        <ele>29.529153900541</ele>
        <time>2018-10-03T16:12:53.020Z</time>
      </trkpt>
      <trkpt lat="49.26697" lon="2.47339">
        <ele>29.529468807381</ele>
        <time>2018-10-03T16:12:54.030Z</time>
      </trkpt>
      <trkpt lat="49.26694" lon="2.47339">
        <ele>29.529614514626</ele>
        <time>2018-10-03T16:12:54.486Z</time>
      </trkpt>
      <trkpt lat="49.26678" lon="2.47341">
        <ele>29.530415381845</ele>
        <time>2018-10-03T16:12:56.978Z</time>
      </trkpt>
      <trkpt lat="49.26662" lon="2.47343">
        <ele>29.531177666678</ele>
        <time>2018-10-03T16:12:59.442Z</time>
      </trkpt>
      <trkpt lat="49.26651" lon="2.47345">
        <ele>29.531703320015</ele>
        <time>2018-10-03T16:13:01.168Z</time>
      </trkpt>
      <trkpt lat="49.26643" lon="2.47347">
        <ele>29.532092580479</ele>
        <time>2018-10-03T16:13:02.418Z</time>
      </trkpt>
      <trkpt lat="49.26638" lon="2.47347">
        <ele>29.532354342937</ele>
        <time>2018-10-03T16:13:03.195Z</time>
      </trkpt>
      <trkpt lat="49.26636" lon="2.47333">
        <ele>29.532800995309</ele>
        <time>2018-10-03T16:13:05.033Z</time>
      </trkpt>
      <trkpt lat="49.26617" lon="2.47251">
        <ele>29.53435020345</ele>
        <time>2018-10-03T16:13:16.194Z</time>
      </trkpt>
      <trkpt lat="49.26613" lon="2.47239">
        <ele>29.53435020345</ele>
        <time>2018-10-03T16:13:17.907Z</time>
      </trkpt>
      <trkpt lat="49.26592" lon="2.47224">
        <ele>29.53435020345</ele>
        <time>2018-10-03T16:13:22.436Z</time>
      </trkpt>
      <trkpt lat="49.26577" lon="2.47211">
        <ele>29.53435020345</ele>
        <time>2018-10-03T16:13:25.749Z</time>
      </trkpt>
      <trkpt lat="49.26556" lon="2.47188">
        <ele>29.53435020345</ele>
        <time>2018-10-03T16:13:30.856Z</time>
      </trkpt>
      <trkpt lat="49.26561" lon="2.47172">
        <ele>29.53435020345</ele>
        <time>2018-10-03T16:13:43.365Z</time>
      </trkpt>
      <trkpt lat="49.26568" lon="2.47157">
        <ele>29.53435020345</ele>
        <time>2018-10-03T16:13:56.983Z</time>
      </trkpt>
      <trkpt lat="49.26559" lon="2.47146">
        <ele>29.53435020345</ele>
        <time>2018-10-03T16:14:10.215Z</time>
      </trkpt>
    </trkseg>
  </trk>
</gpx>